<?xml version="1.0" encoding="UTF-8" standalone="no" ?><gpx xmlns="http://www.topografix.com/GPX/1/1" xmlns:gpxx="http://www.garmin.com/xmlschemas/GpxExtensions/v3" xmlns:wptx1="http://www.garmin.com/xmlschemas/WaypointExtension/v1" xmlns:gpxtpx="http://www.garmin.com/xmlschemas/TrackPointExtension/v1" creator="Dakota 20" version="1.1" xmlns:xsi="http://www.w3.org/2001/XMLSchema-instance" xsi:schemaLocation="http://www.topografix.com/GPX/1/1 http://www.topografix.com/GPX/1/1/gpx.xsd http://www.garmin.com/xmlschemas/GpxExtensions/v3 http://www8.garmin.com/xmlschemas/GpxExtensionsv3.xsd http://www.garmin.com/xmlschemas/WaypointExtension/v1 http://www8.garmin.com/xmlschemas/WaypointExtensionv1.xsd http://www.garmin.com/xmlschemas/TrackPointExtension/v1 http://www.garmin.com/xmlschemas/TrackPointExtensionv1.xsd"><metadata><link href="http://www.garmin.com"><text>Garmin International</text></link><time>2011-11-02T14:45:28Z</time></metadata><trk><name>Current Track: 02 NOV 2011 09:56</name><extensions><gpxx:TrackExtension><gpxx:DisplayColor>Black</gpxx:DisplayColor></gpxx:TrackExtension></extensions><trkseg><trkpt lat="51.9985901657" lon="-2.0027724467"><ele>57.82</ele><time>2011-11-02T09:56:01Z</time></trkpt><trkpt lat="51.9985901657" lon="-2.0027724467"><ele>59.74</ele><time>2011-11-02T09:56:07Z</time></trkpt><trkpt lat="51.9986010622" lon="-2.0027566887"><ele>58.78</ele><time>2011-11-02T09:56:22Z</time></trkpt><trkpt lat="51.9986227714" lon="-2.0027138572"><ele>58.30</ele><time>2011-11-02T09:56:26Z</time></trkpt><trkpt lat="51.9987298921" lon="-2.0025874581"><ele>58.78</ele><time>2011-11-02T09:56:36Z</time></trkpt><trkpt lat="51.9987387769" lon="-2.0025795791"><ele>58.30</ele><time>2011-11-02T09:56:37Z</time></trkpt><trkpt lat="51.9988245238" lon="-2.0025634859"><ele>58.30</ele><time>2011-11-02T09:56:43Z</time></trkpt><trkpt lat="51.9989334047" lon="-2.0027297828"><ele>59.26</ele><time>2011-11-02T09:56:54Z</time></trkpt><trkpt lat="51.9989562035" lon="-2.0027987659"><ele>58.30</ele><time>2011-11-02T09:56:58Z</time></trkpt><trkpt lat="51.9990091771" lon="-2.0028649829"><ele>58.78</ele><time>2011-11-02T09:57:07Z</time></trkpt><trkpt lat="51.9990774896" lon="-2.0028066449"><ele>59.26</ele><time>2011-11-02T09:57:15Z</time></trkpt><trkpt lat="51.9991249312" lon="-2.0027783979"><ele>59.26</ele><time>2011-11-02T09:57:19Z</time></trkpt><trkpt lat="51.9992370810" lon="-2.0027032122"><ele>59.74</ele><time>2011-11-02T09:57:30Z</time></trkpt><trkpt lat="51.9993219897" lon="-2.0026300382"><ele>60.22</ele><time>2011-11-02T09:57:40Z</time></trkpt><trkpt lat="51.9994320441" lon="-2.0025476441"><ele>61.18</ele><time>2011-11-02T09:57:50Z</time></trkpt><trkpt lat="51.9995282684" lon="-2.0024732128"><ele>61.66</ele><time>2011-11-02T09:58:00Z</time></trkpt><trkpt lat="51.9996161107" lon="-2.0024330635"><ele>61.66</ele><time>2011-11-02T09:58:08Z</time></trkpt><trkpt lat="51.9997306075" lon="-2.0023940876"><ele>62.14</ele><time>2011-11-02T09:58:19Z</time></trkpt><trkpt lat="51.9998265803" lon="-2.0023653377"><ele>62.62</ele><time>2011-11-02T09:58:28Z</time></trkpt><trkpt lat="51.9999190327" lon="-2.0023484901"><ele>63.10</ele><time>2011-11-02T09:58:36Z</time></trkpt><trkpt lat="52.0000072941" lon="-2.0023126155"><ele>63.58</ele><time>2011-11-02T09:58:45Z</time></trkpt><trkpt lat="52.0000914484" lon="-2.0022966061"><ele>63.10</ele><time>2011-11-02T09:58:53Z</time></trkpt><trkpt lat="52.0002025086" lon="-2.0022599772"><ele>64.07</ele><time>2011-11-02T09:59:04Z</time></trkpt><trkpt lat="52.0002445858" lon="-2.0022510085"><ele>63.58</ele><time>2011-11-02T09:59:08Z</time></trkpt><trkpt lat="52.0002860762" lon="-2.0022710413"><ele>63.58</ele><time>2011-11-02T09:59:13Z</time></trkpt><trkpt lat="52.0003041811" lon="-2.0023142919"><ele>65.03</ele><time>2011-11-02T09:59:16Z</time></trkpt><trkpt lat="52.0003355294" lon="-2.0024549402"><ele>64.07</ele><time>2011-11-02T09:59:25Z</time></trkpt><trkpt lat="52.0003646985" lon="-2.0025846921"><ele>63.58</ele><time>2011-11-02T09:59:34Z</time></trkpt><trkpt lat="52.0003672130" lon="-2.0026007853"><ele>63.58</ele><time>2011-11-02T09:59:35Z</time></trkpt><trkpt lat="52.0004012436" lon="-2.0027656574"><ele>62.62</ele><time>2011-11-02T09:59:45Z</time></trkpt><trkpt lat="52.0004061051" lon="-2.0027849358"><ele>59.26</ele><time>2011-11-02T09:59:46Z</time></trkpt><trkpt lat="52.0004095417" lon="-2.0028028730"><ele>65.51</ele><time>2011-11-02T09:59:47Z</time></trkpt><trkpt lat="52.0004158281" lon="-2.0028182957"><ele>61.66</ele><time>2011-11-02T09:59:48Z</time></trkpt><trkpt lat="52.0004693884" lon="-2.0029795635"><ele>62.14</ele><time>2011-11-02T09:59:57Z</time></trkpt><trkpt lat="52.0004977193" lon="-2.0031513926"><ele>61.66</ele><time>2011-11-02T10:00:07Z</time></trkpt><trkpt lat="52.0005102083" lon="-2.0032715891"><ele>61.18</ele><time>2011-11-02T10:00:14Z</time></trkpt><trkpt lat="52.0005508605" lon="-2.0034342818"><ele>61.18</ele><time>2011-11-02T10:00:23Z</time></trkpt><trkpt lat="52.0005750842" lon="-2.0035067014"><ele>60.70</ele><time>2011-11-02T10:00:27Z</time></trkpt><trkpt lat="52.0006012358" lon="-2.0036569051"><ele>60.22</ele><time>2011-11-02T10:00:36Z</time></trkpt><trkpt lat="52.0006396249" lon="-2.0037884172"><ele>60.70</ele><time>2011-11-02T10:00:45Z</time></trkpt><trkpt lat="52.0006791875" lon="-2.0039496850"><ele>60.22</ele><time>2011-11-02T10:00:54Z</time></trkpt><trkpt lat="52.0007164869" lon="-2.0040802751"><ele>60.70</ele><time>2011-11-02T10:01:02Z</time></trkpt><trkpt lat="52.0007598214" lon="-2.0042348374"><ele>60.22</ele><time>2011-11-02T10:01:11Z</time></trkpt><trkpt lat="52.0008030720" lon="-2.0044158865"><ele>59.74</ele><time>2011-11-02T10:01:21Z</time></trkpt><trkpt lat="52.0008529443" lon="-2.0045730472"><ele>59.74</ele><time>2011-11-02T10:01:30Z</time></trkpt><trkpt lat="52.0008970331" lon="-2.0047355723"><ele>59.74</ele><time>2011-11-02T10:01:40Z</time></trkpt><trkpt lat="52.0009296387" lon="-2.0048923977"><ele>59.26</ele><time>2011-11-02T10:01:50Z</time></trkpt><trkpt lat="52.0009841211" lon="-2.0050613768"><ele>58.30</ele><time>2011-11-02T10:02:00Z</time></trkpt><trkpt lat="52.0010319818" lon="-2.0052188728"><ele>58.78</ele><time>2011-11-02T10:02:10Z</time></trkpt><trkpt lat="52.0011028927" lon="-2.0052933879"><ele>58.78</ele><time>2011-11-02T10:02:19Z</time></trkpt><trkpt lat="52.0011798386" lon="-2.0052442700"><ele>58.30</ele><time>2011-11-02T10:02:26Z</time></trkpt><trkpt lat="52.0012560301" lon="-2.0051747002"><ele>58.30</ele><time>2011-11-02T10:02:34Z</time></trkpt><trkpt lat="52.0013048965" lon="-2.0051031187"><ele>59.26</ele><time>2011-11-02T10:02:40Z</time></trkpt><trkpt lat="52.0013342332" lon="-2.0050731953"><ele>59.26</ele><time>2011-11-02T10:02:43Z</time></trkpt><trkpt lat="52.0014199801" lon="-2.0049799886"><ele>59.26</ele><time>2011-11-02T10:02:52Z</time></trkpt><trkpt lat="52.0014995243" lon="-2.0049006119"><ele>59.26</ele><time>2011-11-02T10:03:00Z</time></trkpt><trkpt lat="52.0015841816" lon="-2.0048059803"><ele>59.26</ele><time>2011-11-02T10:03:09Z</time></trkpt><trkpt lat="52.0016586967" lon="-2.0047280286"><ele>59.26</ele><time>2011-11-02T10:03:17Z</time></trkpt><trkpt lat="52.0017261710" lon="-2.0046538487"><ele>59.26</ele><time>2011-11-02T10:03:25Z</time></trkpt><trkpt lat="52.0017951541" lon="-2.0045840275"><ele>58.78</ele><time>2011-11-02T10:03:33Z</time></trkpt><trkpt lat="52.0018379018" lon="-2.0045233425"><ele>59.26</ele><time>2011-11-02T10:03:38Z</time></trkpt><trkpt lat="52.0018627960" lon="-2.0044759009"><ele>60.22</ele><time>2011-11-02T10:03:41Z</time></trkpt><trkpt lat="52.0018896181" lon="-2.0044329856"><ele>58.78</ele><time>2011-11-02T10:03:44Z</time></trkpt><trkpt lat="52.0019465312" lon="-2.0043718815"><ele>60.22</ele><time>2011-11-02T10:03:51Z</time></trkpt><trkpt lat="52.0020442642" lon="-2.0042538643"><ele>59.74</ele><time>2011-11-02T10:04:02Z</time></trkpt><trkpt lat="52.0021217968" lon="-2.0041693747"><ele>60.70</ele><time>2011-11-02T10:04:10Z</time></trkpt><trkpt lat="52.0021490380" lon="-2.0040586498"><ele>59.74</ele><time>2011-11-02T10:04:18Z</time></trkpt><trkpt lat="52.0021461882" lon="-2.0040423889"><ele>60.22</ele><time>2011-11-02T10:04:19Z</time></trkpt><trkpt lat="52.0021288376" lon="-2.0039492659"><ele>59.74</ele><time>2011-11-02T10:04:25Z</time></trkpt><trkpt lat="52.0021331124" lon="-2.0039117988"><ele>60.70</ele><time>2011-11-02T10:04:32Z</time></trkpt><trkpt lat="52.0021514688" lon="-2.0039101224"><ele>61.18</ele><time>2011-11-02T10:04:42Z</time></trkpt><trkpt lat="52.0021851640" lon="-2.0039356872"><ele>60.70</ele><time>2011-11-02T10:04:51Z</time></trkpt><trkpt lat="52.0022352040" lon="-2.0039801113"><ele>60.22</ele><time>2011-11-02T10:04:59Z</time></trkpt><trkpt lat="52.0022891834" lon="-2.0040999725"><ele>60.22</ele><time>2011-11-02T10:05:08Z</time></trkpt><trkpt lat="52.0023229625" lon="-2.0040970389"><ele>60.70</ele><time>2011-11-02T10:05:11Z</time></trkpt><trkpt lat="52.0024222881" lon="-2.0039899182"><ele>60.22</ele><time>2011-11-02T10:05:22Z</time></trkpt><trkpt lat="52.0024938695" lon="-2.0039245393"><ele>60.70</ele><time>2011-11-02T10:05:30Z</time></trkpt><trkpt lat="52.0025550574" lon="-2.0038593281"><ele>60.70</ele><time>2011-11-02T10:05:37Z</time></trkpt><trkpt lat="52.0025841426" lon="-2.0038295723"><ele>60.70</ele><time>2011-11-02T10:05:41Z</time></trkpt><trkpt lat="52.0026240405" lon="-2.0037788618"><ele>65.99</ele><time>2011-11-02T10:05:48Z</time></trkpt><trkpt lat="52.0026459172" lon="-2.0037575718"><ele>60.70</ele><time>2011-11-02T10:05:51Z</time></trkpt><trkpt lat="52.0027014054" lon="-2.0036646165"><ele>61.66</ele><time>2011-11-02T10:05:59Z</time></trkpt><trkpt lat="52.0027513616" lon="-2.0035983156"><ele>61.66</ele><time>2011-11-02T10:06:06Z</time></trkpt><trkpt lat="52.0028214343" lon="-2.0035057794"><ele>62.14</ele><time>2011-11-02T10:06:15Z</time></trkpt><trkpt lat="52.0028981287" lon="-2.0034303423"><ele>61.66</ele><time>2011-11-02T10:06:23Z</time></trkpt><trkpt lat="52.0029891562" lon="-2.0033577550"><ele>62.14</ele><time>2011-11-02T10:06:32Z</time></trkpt><trkpt lat="52.0030739810" lon="-2.0032647997"><ele>62.62</ele><time>2011-11-02T10:06:42Z</time></trkpt><trkpt lat="52.0031588059" lon="-2.0032067969"><ele>62.62</ele><time>2011-11-02T10:06:51Z</time></trkpt><trkpt lat="52.0032355841" lon="-2.0031284261"><ele>63.10</ele><time>2011-11-02T10:07:00Z</time></trkpt><trkpt lat="52.0033023879" lon="-2.0030604489"><ele>63.10</ele><time>2011-11-02T10:07:08Z</time></trkpt><trkpt lat="52.0033711195" lon="-2.0029726904"><ele>63.58</ele><time>2011-11-02T10:07:17Z</time></trkpt><trkpt lat="52.0034577884" lon="-2.0028923918"><ele>63.58</ele><time>2011-11-02T10:07:27Z</time></trkpt><trkpt lat="52.0035224129" lon="-2.0028176252"><ele>63.58</ele><time>2011-11-02T10:07:36Z</time></trkpt><trkpt lat="52.0035295375" lon="-2.0028118417"><ele>63.10</ele><time>2011-11-02T10:07:37Z</time></trkpt><trkpt lat="52.0035646576" lon="-2.0027760509"><ele>62.62</ele><time>2011-11-02T10:07:41Z</time></trkpt><trkpt lat="52.0036650728" lon="-2.0026795752"><ele>62.14</ele><time>2011-11-02T10:07:52Z</time></trkpt><trkpt lat="52.0037409291" lon="-2.0025981870"><ele>63.10</ele><time>2011-11-02T10:08:01Z</time></trkpt><trkpt lat="52.0038207248" lon="-2.0025198162"><ele>62.62</ele><time>2011-11-02T10:08:10Z</time></trkpt><trkpt lat="52.0038896240" lon="-2.0024441276"><ele>63.58</ele><time>2011-11-02T10:08:19Z</time></trkpt><trkpt lat="52.0039776340" lon="-2.0023745578"><ele>63.10</ele><time>2011-11-02T10:08:28Z</time></trkpt><trkpt lat="52.0040358882" lon="-2.0024021342"><ele>63.10</ele><time>2011-11-02T10:08:35Z</time></trkpt><trkpt lat="52.0041103195" lon="-2.0025259349"><ele>63.58</ele><time>2011-11-02T10:08:45Z</time></trkpt><trkpt lat="52.0041798893" lon="-2.0026453771"><ele>62.62</ele><time>2011-11-02T10:08:55Z</time></trkpt><trkpt lat="52.0042034425" lon="-2.0027002785"><ele>63.10</ele><time>2011-11-02T10:08:59Z</time></trkpt><trkpt lat="52.0042556617" lon="-2.0027835947"><ele>62.62</ele><time>2011-11-02T10:09:07Z</time></trkpt><trkpt lat="52.0042952243" lon="-2.0027686749"><ele>63.10</ele><time>2011-11-02T10:09:13Z</time></trkpt><trkpt lat="52.0043723378" lon="-2.0027145278"><ele>63.58</ele><time>2011-11-02T10:09:22Z</time></trkpt><trkpt lat="52.0044429973" lon="-2.0026583690"><ele>63.10</ele><time>2011-11-02T10:09:30Z</time></trkpt><trkpt lat="52.0045025926" lon="-2.0026174653"><ele>63.58</ele><time>2011-11-02T10:09:37Z</time></trkpt><trkpt lat="52.0045598410" lon="-2.0025865361"><ele>63.58</ele><time>2011-11-02T10:09:45Z</time></trkpt><trkpt lat="52.0045740902" lon="-2.0025722869"><ele>64.07</ele><time>2011-11-02T10:09:56Z</time></trkpt><trkpt lat="52.0045786165" lon="-2.0025698561"><ele>64.07</ele><time>2011-11-02T10:10:08Z</time></trkpt><trkpt lat="52.0045786165" lon="-2.0025698561"><ele>60.70</ele><time>2011-11-02T10:10:12Z</time></trkpt><trkpt lat="52.0045786165" lon="-2.0025698561"><ele>64.07</ele><time>2011-11-02T10:10:18Z</time></trkpt><trkpt lat="52.0045855734" lon="-2.0025685988"><ele>64.55</ele><time>2011-11-02T10:10:29Z</time></trkpt><trkpt lat="52.0045858249" lon="-2.0025649108"><ele>64.07</ele><time>2011-11-02T10:10:38Z</time></trkpt><trkpt lat="52.0045858249" lon="-2.0025649108"><ele>64.07</ele><time>2011-11-02T10:10:55Z</time></trkpt><trkpt lat="52.0046006609" lon="-2.0025697723"><ele>63.58</ele><time>2011-11-02T10:11:01Z</time></trkpt><trkpt lat="52.0046211965" lon="-2.0025654975"><ele>65.03</ele><time>2011-11-02T10:11:07Z</time></trkpt><trkpt lat="52.0046732482" lon="-2.0025608037"><ele>64.07</ele><time>2011-11-02T10:11:11Z</time></trkpt><trkpt lat="52.0047620963" lon="-2.0025488175"><ele>64.55</ele><time>2011-11-02T10:11:19Z</time></trkpt><trkpt lat="52.0048453286" lon="-2.0025368314"><ele>64.55</ele><time>2011-11-02T10:11:26Z</time></trkpt><trkpt lat="52.0049626753" lon="-2.0025392622"><ele>64.07</ele><time>2011-11-02T10:11:36Z</time></trkpt><trkpt lat="52.0050900802" lon="-2.0025366638"><ele>63.58</ele><time>2011-11-02T10:11:47Z</time></trkpt><trkpt lat="52.0051827841" lon="-2.0025312155"><ele>64.07</ele><time>2011-11-02T10:11:55Z</time></trkpt><trkpt lat="52.0052674413" lon="-2.0025368314"><ele>64.07</ele><time>2011-11-02T10:12:04Z</time></trkpt><trkpt lat="52.0053396933" lon="-2.0025385916"><ele>64.55</ele><time>2011-11-02T10:12:11Z</time></trkpt><trkpt lat="52.0053526852" lon="-2.0025379211"><ele>64.07</ele><time>2011-11-02T10:12:13Z</time></trkpt><trkpt lat="52.0053880569" lon="-2.0025442913"><ele>64.07</ele><time>2011-11-02T10:12:17Z</time></trkpt><trkpt lat="52.0054727979" lon="-2.0025406871"><ele>64.55</ele><time>2011-11-02T10:12:26Z</time></trkpt><trkpt lat="52.0055369195" lon="-2.0025389269"><ele>64.55</ele><time>2011-11-02T10:12:33Z</time></trkpt><trkpt lat="52.0056151226" lon="-2.0025436208"><ele>64.55</ele><time>2011-11-02T10:12:41Z</time></trkpt><trkpt lat="52.0057141967" lon="-2.0025418606"><ele>65.03</ele><time>2011-11-02T10:12:51Z</time></trkpt><trkpt lat="52.0058267657" lon="-2.0025372505"><ele>64.55</ele><time>2011-11-02T10:13:01Z</time></trkpt><trkpt lat="52.0059250854" lon="-2.0025415253"><ele>64.55</ele><time>2011-11-02T10:13:11Z</time></trkpt><trkpt lat="52.0060101617" lon="-2.0025480632"><ele>64.55</ele><time>2011-11-02T10:13:20Z</time></trkpt><trkpt lat="52.0061113313" lon="-2.0025443751"><ele>63.58</ele><time>2011-11-02T10:13:29Z</time></trkpt><trkpt lat="52.0062292647" lon="-2.0025494881"><ele>64.07</ele><time>2011-11-02T10:13:38Z</time></trkpt><trkpt lat="52.0063269977" lon="-2.0025515836"><ele>64.07</ele><time>2011-11-02T10:13:47Z</time></trkpt><trkpt lat="52.0063739363" lon="-2.0025526732"><ele>64.07</ele><time>2011-11-02T10:13:51Z</time></trkpt><trkpt lat="52.0064746030" lon="-2.0025528409"><ele>64.07</ele><time>2011-11-02T10:13:59Z</time></trkpt><trkpt lat="52.0065415744" lon="-2.0025571156"><ele>64.55</ele><time>2011-11-02T10:14:06Z</time></trkpt><trkpt lat="52.0066429116" lon="-2.0025532600"><ele>65.03</ele><time>2011-11-02T10:14:16Z</time></trkpt><trkpt lat="52.0067257248" lon="-2.0025525056"><ele>65.03</ele><time>2011-11-02T10:14:25Z</time></trkpt><trkpt lat="52.0068086218" lon="-2.0025578700"><ele>65.51</ele><time>2011-11-02T10:14:33Z</time></trkpt><trkpt lat="52.0069125574" lon="-2.0025587082"><ele>65.51</ele><time>2011-11-02T10:14:43Z</time></trkpt><trkpt lat="52.0069289021" lon="-2.0025601331"><ele>65.51</ele><time>2011-11-02T10:14:47Z</time></trkpt><trkpt lat="52.0069810376" lon="-2.0025473926"><ele>65.51</ele><time>2011-11-02T10:14:53Z</time></trkpt><trkpt lat="52.0070927683" lon="-2.0025465544"><ele>66.95</ele><time>2011-11-02T10:15:02Z</time></trkpt><trkpt lat="52.0071987994" lon="-2.0025550202"><ele>65.99</ele><time>2011-11-02T10:15:11Z</time></trkpt><trkpt lat="52.0072904974" lon="-2.0025593787"><ele>66.95</ele><time>2011-11-02T10:15:19Z</time></trkpt><trkpt lat="52.0073588938" lon="-2.0025540981"><ele>66.47</ele><time>2011-11-02T10:15:26Z</time></trkpt><trkpt lat="52.0074534416" lon="-2.0025530085"><ele>66.47</ele><time>2011-11-02T10:15:36Z</time></trkpt><trkpt lat="52.0075195748" lon="-2.0025514998"><ele>65.99</ele><time>2011-11-02T10:15:43Z</time></trkpt><trkpt lat="52.0075446367" lon="-2.0025505777"><ele>67.43</ele><time>2011-11-02T10:15:47Z</time></trkpt><trkpt lat="52.0075446367" lon="-2.0025505777"><ele>65.99</ele><time>2011-11-02T10:16:03Z</time></trkpt><trkpt lat="52.0075446367" lon="-2.0025505777"><ele>66.95</ele><time>2011-11-02T10:16:16Z</time></trkpt><trkpt lat="52.0075442176" lon="-2.0025489014"><ele>66.95</ele><time>2011-11-02T10:16:33Z</time></trkpt><trkpt lat="52.0075442176" lon="-2.0025489014"><ele>66.47</ele><time>2011-11-02T10:16:52Z</time></trkpt><trkpt lat="52.0075480733" lon="-2.0025456324"><ele>66.95</ele><time>2011-11-02T10:17:08Z</time></trkpt><trkpt lat="52.0075480733" lon="-2.0025456324"><ele>68.39</ele><time>2011-11-02T10:17:12Z</time></trkpt><trkpt lat="52.0075553656" lon="-2.0025552716"><ele>67.43</ele><time>2011-11-02T10:17:19Z</time></trkpt><trkpt lat="52.0076031424" lon="-2.0025610551"><ele>67.91</ele><time>2011-11-02T10:17:27Z</time></trkpt><trkpt lat="52.0076548588" lon="-2.0025649108"><ele>67.43</ele><time>2011-11-02T10:17:36Z</time></trkpt><trkpt lat="52.0076915715" lon="-2.0025660004"><ele>67.91</ele><time>2011-11-02T10:17:40Z</time></trkpt><trkpt lat="52.0077316370" lon="-2.0025584567"><ele>68.39</ele><time>2011-11-02T10:17:45Z</time></trkpt><trkpt lat="52.0078193955" lon="-2.0025516674"><ele>68.39</ele><time>2011-11-02T10:17:53Z</time></trkpt><trkpt lat="52.0079001971" lon="-2.0025574509"><ele>68.39</ele><time>2011-11-02T10:18:00Z</time></trkpt><trkpt lat="52.0079609659" lon="-2.0025599655"><ele>68.87</ele><time>2011-11-02T10:18:07Z</time></trkpt><trkpt lat="52.0080316253" lon="-2.0025551040"><ele>69.35</ele><time>2011-11-02T10:18:14Z</time></trkpt><trkpt lat="52.0081500616" lon="-2.0025710296"><ele>69.83</ele><time>2011-11-02T10:18:25Z</time></trkpt><trkpt lat="52.0082539134" lon="-2.0025701076"><ele>70.31</ele><time>2011-11-02T10:18:35Z</time></trkpt><trkpt lat="52.0083603635" lon="-2.0025686827"><ele>71.76</ele><time>2011-11-02T10:18:44Z</time></trkpt><trkpt lat="52.0084410813" lon="-2.0025869552"><ele>71.27</ele><time>2011-11-02T10:18:52Z</time></trkpt><trkpt lat="52.0084756985" lon="-2.0025869552"><ele>72.24</ele><time>2011-11-02T10:18:59Z</time></trkpt><trkpt lat="52.0085804723" lon="-2.0025893021"><ele>72.24</ele><time>2011-11-02T10:19:08Z</time></trkpt><trkpt lat="52.0086814743" lon="-2.0026068203"><ele>72.24</ele><time>2011-11-02T10:19:16Z</time></trkpt><trkpt lat="52.0087697357" lon="-2.0026218239"><ele>73.68</ele><time>2011-11-02T10:19:23Z</time></trkpt><trkpt lat="52.0088749286" lon="-2.0026334748"><ele>74.16</ele><time>2011-11-02T10:19:32Z</time></trkpt><trkpt lat="52.0089055225" lon="-2.0026315469"><ele>72.72</ele><time>2011-11-02T10:19:35Z</time></trkpt><trkpt lat="52.0090288203" lon="-2.0026374981"><ele>72.72</ele><time>2011-11-02T10:19:45Z</time></trkpt><trkpt lat="52.0091451611" lon="-2.0026522502"><ele>74.16</ele><time>2011-11-02T10:19:53Z</time></trkpt><trkpt lat="52.0092365239" lon="-2.0026525017"><ele>72.72</ele><time>2011-11-02T10:20:01Z</time></trkpt><trkpt lat="52.0092961192" lon="-2.0026358217"><ele>72.72</ele><time>2011-11-02T10:20:09Z</time></trkpt><trkpt lat="52.0093169063" lon="-2.0026530046"><ele>73.20</ele><time>2011-11-02T10:20:18Z</time></trkpt><trkpt lat="52.0093169063" lon="-2.0026530046"><ele>73.20</ele><time>2011-11-02T10:20:28Z</time></trkpt><trkpt lat="52.0093169063" lon="-2.0026530046"><ele>72.24</ele><time>2011-11-02T10:20:43Z</time></trkpt><trkpt lat="52.0093263779" lon="-2.0026576985"><ele>73.20</ele><time>2011-11-02T10:20:59Z</time></trkpt><trkpt lat="52.0093291439" lon="-2.0026614703"><ele>73.20</ele><time>2011-11-02T10:21:00Z</time></trkpt><trkpt lat="52.0093834586" lon="-2.0026973449"><ele>73.20</ele><time>2011-11-02T10:21:07Z</time></trkpt><trkpt lat="52.0093931817" lon="-2.0027055591"><ele>72.72</ele><time>2011-11-02T10:21:08Z</time></trkpt><trkpt lat="52.0094827842" lon="-2.0027490612"><ele>72.24</ele><time>2011-11-02T10:21:17Z</time></trkpt><trkpt lat="52.0095613226" lon="-2.0027991850"><ele>72.24</ele><time>2011-11-02T10:21:25Z</time></trkpt><trkpt lat="52.0096587203" lon="-2.0028759632"><ele>71.27</ele><time>2011-11-02T10:21:34Z</time></trkpt><trkpt lat="52.0097256079" lon="-2.0028983429"><ele>71.76</ele><time>2011-11-02T10:21:40Z</time></trkpt><trkpt lat="52.0098118577" lon="-2.0029379055"><ele>71.76</ele><time>2011-11-02T10:21:49Z</time></trkpt><trkpt lat="52.0098824333" lon="-2.0030057989"><ele>71.76</ele><time>2011-11-02T10:21:56Z</time></trkpt><trkpt lat="52.0099065732" lon="-2.0030245744"><ele>72.24</ele><time>2011-11-02T10:21:58Z</time></trkpt><trkpt lat="52.0100147836" lon="-2.0030969102"><ele>71.76</ele><time>2011-11-02T10:22:08Z</time></trkpt><trkpt lat="52.0100684278" lon="-2.0031179488"><ele>72.24</ele><time>2011-11-02T10:22:16Z</time></trkpt><trkpt lat="52.0100718644" lon="-2.0031020232"><ele>76.56</ele><time>2011-11-02T10:22:24Z</time></trkpt><trkpt lat="52.0100754686" lon="-2.0030943118"><ele>72.24</ele><time>2011-11-02T10:22:25Z</time></trkpt><trkpt lat="52.0101260953" lon="-2.0030577667"><ele>72.72</ele><time>2011-11-02T10:22:31Z</time></trkpt><trkpt lat="52.0101442002" lon="-2.0030476246"><ele>73.20</ele><time>2011-11-02T10:22:33Z</time></trkpt><trkpt lat="52.0101932343" lon="-2.0030268375"><ele>74.16</ele><time>2011-11-02T10:22:37Z</time></trkpt><trkpt lat="52.0102393348" lon="-2.0030028652"><ele>74.64</ele><time>2011-11-02T10:22:42Z</time></trkpt><trkpt lat="52.0102938171" lon="-2.0029850118"><ele>74.64</ele><time>2011-11-02T10:22:46Z</time></trkpt><trkpt lat="52.0103615429" lon="-2.0029391628"><ele>75.12</ele><time>2011-11-02T10:22:53Z</time></trkpt><trkpt lat="52.0103768818" lon="-2.0029358100"><ele>75.60</ele><time>2011-11-02T10:22:55Z</time></trkpt><trkpt lat="52.0104112476" lon="-2.0029027853"><ele>77.52</ele><time>2011-11-02T10:23:00Z</time></trkpt><trkpt lat="52.0104907919" lon="-2.0028574392"><ele>75.60</ele><time>2011-11-02T10:23:08Z</time></trkpt><trkpt lat="52.0105004311" lon="-2.0028519072"><ele>75.60</ele><time>2011-11-02T10:23:09Z</time></trkpt><trkpt lat="52.0105528180" lon="-2.0028318744"><ele>75.60</ele><time>2011-11-02T10:23:14Z</time></trkpt><trkpt lat="52.0106100664" lon="-2.0027891267"><ele>77.04</ele><time>2011-11-02T10:23:22Z</time></trkpt><trkpt lat="52.0107160136" lon="-2.0027322136"><ele>76.56</ele><time>2011-11-02T10:23:32Z</time></trkpt><trkpt lat="52.0108082984" lon="-2.0026716124"><ele>77.52</ele><time>2011-11-02T10:23:41Z</time></trkpt><trkpt lat="52.0108928718" lon="-2.0026302058"><ele>78.97</ele><time>2011-11-02T10:23:49Z</time></trkpt><trkpt lat="52.0109700691" lon="-2.0025801659"><ele>79.45</ele><time>2011-11-02T10:23:58Z</time></trkpt><trkpt lat="52.0110603422" lon="-2.0025294553"><ele>79.93</ele><time>2011-11-02T10:24:07Z</time></trkpt><trkpt lat="52.0110949595" lon="-2.0025000349"><ele>79.93</ele><time>2011-11-02T10:24:11Z</time></trkpt><trkpt lat="52.0111538842" lon="-2.0024816785"><ele>79.93</ele><time>2011-11-02T10:24:19Z</time></trkpt><trkpt lat="52.0111616794" lon="-2.0024781581"><ele>79.93</ele><time>2011-11-02T10:24:20Z</time></trkpt><trkpt lat="52.0112273935" lon="-2.0024064090"><ele>80.41</ele><time>2011-11-02T10:24:28Z</time></trkpt><trkpt lat="52.0112416428" lon="-2.0023599733"><ele>81.37</ele><time>2011-11-02T10:24:35Z</time></trkpt><trkpt lat="52.0112455823" lon="-2.0023624040"><ele>81.37</ele><time>2011-11-02T10:24:42Z</time></trkpt><trkpt lat="52.0112916827" lon="-2.0023792516"><ele>81.37</ele><time>2011-11-02T10:24:50Z</time></trkpt><trkpt lat="52.0112952031" lon="-2.0023776591"><ele>81.37</ele><time>2011-11-02T10:24:58Z</time></trkpt><trkpt lat="52.0112946164" lon="-2.0023757312"><ele>82.33</ele><time>2011-11-02T10:25:09Z</time></trkpt><trkpt lat="52.0112946164" lon="-2.0023757312"><ele>81.37</ele><time>2011-11-02T10:25:23Z</time></trkpt><trkpt lat="52.0112946164" lon="-2.0023757312"><ele>81.37</ele><time>2011-11-02T10:25:37Z</time></trkpt><trkpt lat="52.0113029145" lon="-2.0023778267"><ele>81.85</ele><time>2011-11-02T10:25:49Z</time></trkpt><trkpt lat="52.0113029145" lon="-2.0023778267"><ele>82.33</ele><time>2011-11-02T10:26:00Z</time></trkpt><trkpt lat="52.0113336761" lon="-2.0023765694"><ele>81.85</ele><time>2011-11-02T10:26:10Z</time></trkpt><trkpt lat="52.0113984682" lon="-2.0023865439"><ele>81.37</ele><time>2011-11-02T10:26:18Z</time></trkpt><trkpt lat="52.0114946086" lon="-2.0023640804"><ele>81.85</ele><time>2011-11-02T10:26:28Z</time></trkpt><trkpt lat="52.0115660224" lon="-2.0023463108"><ele>82.81</ele><time>2011-11-02T10:26:37Z</time></trkpt><trkpt lat="52.0115701295" lon="-2.0023442991"><ele>83.77</ele><time>2011-11-02T10:26:50Z</time></trkpt><trkpt lat="52.0115701295" lon="-2.0023442991"><ele>83.77</ele><time>2011-11-02T10:27:03Z</time></trkpt><trkpt lat="52.0115701295" lon="-2.0023442991"><ele>83.77</ele><time>2011-11-02T10:27:16Z</time></trkpt><trkpt lat="52.0116111171" lon="-2.0023346599"><ele>83.29</ele><time>2011-11-02T10:27:26Z</time></trkpt><trkpt lat="52.0116581395" lon="-2.0023597218"><ele>83.29</ele><time>2011-11-02T10:27:34Z</time></trkpt><trkpt lat="52.0117249433" lon="-2.0024079178"><ele>83.29</ele><time>2011-11-02T10:27:43Z</time></trkpt><trkpt lat="52.0118123665" lon="-2.0024453849"><ele>82.81</ele><time>2011-11-02T10:27:49Z</time></trkpt><trkpt lat="52.0119163021" lon="-2.0025409386"><ele>82.81</ele><time>2011-11-02T10:27:57Z</time></trkpt><trkpt lat="52.0119789150" lon="-2.0025919843"><ele>82.33</ele><time>2011-11-02T10:28:06Z</time></trkpt><trkpt lat="52.0120401029" lon="-2.0026586205"><ele>81.37</ele><time>2011-11-02T10:28:14Z</time></trkpt><trkpt lat="52.0121435355" lon="-2.0027212333"><ele>80.41</ele><time>2011-11-02T10:28:21Z</time></trkpt><trkpt lat="52.0122556016" lon="-2.0028004423"><ele>80.41</ele><time>2011-11-02T10:28:30Z</time></trkpt><trkpt lat="52.0123737864" lon="-2.0028218161"><ele>79.93</ele><time>2011-11-02T10:28:39Z</time></trkpt><trkpt lat="52.0124674123" lon="-2.0028756279"><ele>78.97</ele><time>2011-11-02T10:28:50Z</time></trkpt><trkpt lat="52.0125826634" lon="-2.0029249135"><ele>78.97</ele><time>2011-11-02T10:29:00Z</time></trkpt><trkpt lat="52.0127088111" lon="-2.0029734448"><ele>78.00</ele><time>2011-11-02T10:29:10Z</time></trkpt><trkpt lat="52.0127582643" lon="-2.0030079782"><ele>78.00</ele><time>2011-11-02T10:29:18Z</time></trkpt><trkpt lat="52.0128390659" lon="-2.0030394103"><ele>77.52</ele><time>2011-11-02T10:29:27Z</time></trkpt><trkpt lat="52.0129140839" lon="-2.0030562580"><ele>76.56</ele><time>2011-11-02T10:29:36Z</time></trkpt><trkpt lat="52.0130105596" lon="-2.0031061303"><ele>78.00</ele><time>2011-11-02T10:29:43Z</time></trkpt><trkpt lat="52.0130847394" lon="-2.0031493809"><ele>77.04</ele><time>2011-11-02T10:29:51Z</time></trkpt><trkpt lat="52.0131533034" lon="-2.0031557512"><ele>76.08</ele><time>2011-11-02T10:29:58Z</time></trkpt><trkpt lat="52.0132866595" lon="-2.0031850878"><ele>77.04</ele><time>2011-11-02T10:30:08Z</time></trkpt><trkpt lat="52.0133252162" lon="-2.0032009296"><ele>75.60</ele><time>2011-11-02T10:30:17Z</time></trkpt><trkpt lat="52.0133886673" lon="-2.0031936374"><ele>75.60</ele><time>2011-11-02T10:30:26Z</time></trkpt><trkpt lat="52.0134887472" lon="-2.0032098144"><ele>76.08</ele><time>2011-11-02T10:30:34Z</time></trkpt><trkpt lat="52.0134964585" lon="-2.0032038633"><ele>75.60</ele><time>2011-11-02T10:30:44Z</time></trkpt><trkpt lat="52.0135631785" lon="-2.0031782985"><ele>75.60</ele><time>2011-11-02T10:30:54Z</time></trkpt><trkpt lat="52.0136822853" lon="-2.0031378139"><ele>75.60</ele><time>2011-11-02T10:31:03Z</time></trkpt><trkpt lat="52.0136972051" lon="-2.0031348802"><ele>76.08</ele><time>2011-11-02T10:31:11Z</time></trkpt><trkpt lat="52.0137616619" lon="-2.0030984189"><ele>76.56</ele><time>2011-11-02T10:31:16Z</time></trkpt><trkpt lat="52.0138995443" lon="-2.0029971655"><ele>77.04</ele><time>2011-11-02T10:31:25Z</time></trkpt><trkpt lat="52.0139359217" lon="-2.0029777195"><ele>77.04</ele><time>2011-11-02T10:31:33Z</time></trkpt><trkpt lat="52.0139748137" lon="-2.0029591955"><ele>77.52</ele><time>2011-11-02T10:31:40Z</time></trkpt><trkpt lat="52.0141155459" lon="-2.0028928109"><ele>77.04</ele><time>2011-11-02T10:31:49Z</time></trkpt><trkpt lat="52.0141292922" lon="-2.0028807409"><ele>77.04</ele><time>2011-11-02T10:31:57Z</time></trkpt><trkpt lat="52.0141755603" lon="-2.0028551761"><ele>77.52</ele><time>2011-11-02T10:32:04Z</time></trkpt><trkpt lat="52.0143163763" lon="-2.0027820859"><ele>78.00</ele><time>2011-11-02T10:32:11Z</time></trkpt><trkpt lat="52.0144083258" lon="-2.0027307887"><ele>78.00</ele><time>2011-11-02T10:32:20Z</time></trkpt><trkpt lat="52.0144933183" lon="-2.0026652422"><ele>77.52</ele><time>2011-11-02T10:32:28Z</time></trkpt><trkpt lat="52.0145705156" lon="-2.0026265178"><ele>78.00</ele><time>2011-11-02T10:32:37Z</time></trkpt><trkpt lat="52.0145892072" lon="-2.0025883801"><ele>78.97</ele><time>2011-11-02T10:32:46Z</time></trkpt><trkpt lat="52.0146982558" lon="-2.0025152061"><ele>79.93</ele><time>2011-11-02T10:32:53Z</time></trkpt><trkpt lat="52.0147644728" lon="-2.0024746377"><ele>79.93</ele><time>2011-11-02T10:33:02Z</time></trkpt><trkpt lat="52.0148963202" lon="-2.0024296269"><ele>78.97</ele><time>2011-11-02T10:33:11Z</time></trkpt><trkpt lat="52.0149655547" lon="-2.0024279505"><ele>78.00</ele><time>2011-11-02T10:33:21Z</time></trkpt><trkpt lat="52.0150923729" lon="-2.0024110191"><ele>77.52</ele><time>2011-11-02T10:33:30Z</time></trkpt><trkpt lat="52.0151259005" lon="-2.0024122763"><ele>77.52</ele><time>2011-11-02T10:33:37Z</time></trkpt><trkpt lat="52.0152141619" lon="-2.0023872983"><ele>76.56</ele><time>2011-11-02T10:33:45Z</time></trkpt><trkpt lat="52.0153419022" lon="-2.0023526810"><ele>77.04</ele><time>2011-11-02T10:33:56Z</time></trkpt><trkpt lat="52.0154288225" lon="-2.0023110230"><ele>77.04</ele><time>2011-11-02T10:34:04Z</time></trkpt><trkpt lat="52.0154724084" lon="-2.0022840332"><ele>77.04</ele><time>2011-11-02T10:34:12Z</time></trkpt><trkpt lat="52.0155314170" lon="-2.0022474881"><ele>77.04</ele><time>2011-11-02T10:34:19Z</time></trkpt><trkpt lat="52.0155354403" lon="-2.0022419561"><ele>76.56</ele><time>2011-11-02T10:34:28Z</time></trkpt><trkpt lat="52.0155724045" lon="-2.0022311434"><ele>76.56</ele><time>2011-11-02T10:34:36Z</time></trkpt><trkpt lat="52.0157019887" lon="-2.0021831989"><ele>75.60</ele><time>2011-11-02T10:34:45Z</time></trkpt><trkpt lat="52.0158619154" lon="-2.0021278784"><ele>75.12</ele><time>2011-11-02T10:34:53Z</time></trkpt><trkpt lat="52.0159596484" lon="-2.0020609070"><ele>75.12</ele><time>2011-11-02T10:35:02Z</time></trkpt><trkpt lat="52.0160091855" lon="-2.0020301454"><ele>74.64</ele><time>2011-11-02T10:35:09Z</time></trkpt><trkpt lat="52.0161291305" lon="-2.0019398723"><ele>75.12</ele><time>2011-11-02T10:35:18Z</time></trkpt><trkpt lat="52.0161852054" lon="-2.0018495154"><ele>75.60</ele><time>2011-11-02T10:35:27Z</time></trkpt><trkpt lat="52.0162189007" lon="-2.0017931052"><ele>75.60</ele><time>2011-11-02T10:35:37Z</time></trkpt><trkpt lat="52.0163594652" lon="-2.0016220305"><ele>76.08</ele><time>2011-11-02T10:35:48Z</time></trkpt><trkpt lat="52.0163929090" lon="-2.0015665423"><ele>75.12</ele><time>2011-11-02T10:35:56Z</time></trkpt><trkpt lat="52.0164419431" lon="-2.0014691446"><ele>75.60</ele><time>2011-11-02T10:36:03Z</time></trkpt><trkpt lat="52.0164739620" lon="-2.0013953838"><ele>75.60</ele><time>2011-11-02T10:36:11Z</time></trkpt><trkpt lat="52.0165205654" lon="-2.0012831502"><ele>76.56</ele><time>2011-11-02T10:36:21Z</time></trkpt><trkpt lat="52.0165311266" lon="-2.0012448449"><ele>77.04</ele><time>2011-11-02T10:36:28Z</time></trkpt><trkpt lat="52.0165728685" lon="-2.0011710841"><ele>77.04</ele><time>2011-11-02T10:36:36Z</time></trkpt><trkpt lat="52.0166355651" lon="-2.0009311941"><ele>77.52</ele><time>2011-11-02T10:36:45Z</time></trkpt><trkpt lat="52.0166561846" lon="-2.0009094011"><ele>76.56</ele><time>2011-11-02T10:36:51Z</time></trkpt><trkpt lat="52.0167058893" lon="-2.0008296054"><ele>77.04</ele><time>2011-11-02T10:36:58Z</time></trkpt><trkpt lat="52.0167702623" lon="-2.0007407572"><ele>77.52</ele><time>2011-11-02T10:37:05Z</time></trkpt><trkpt lat="52.0168085676" lon="-2.0006520767"><ele>77.52</ele><time>2011-11-02T10:37:15Z</time></trkpt><trkpt lat="52.0168131776" lon="-2.0006437786"><ele>78.00</ele><time>2011-11-02T10:37:25Z</time></trkpt><trkpt lat="52.0168131776" lon="-2.0006437786"><ele>77.04</ele><time>2011-11-02T10:37:39Z</time></trkpt><trkpt lat="52.0168192126" lon="-2.0006448682"><ele>76.56</ele><time>2011-11-02T10:37:46Z</time></trkpt><trkpt lat="52.0168421790" lon="-2.0006265119"><ele>76.56</ele><time>2011-11-02T10:37:48Z</time></trkpt><trkpt lat="52.0169298537" lon="-2.0004841033"><ele>76.08</ele><time>2011-11-02T10:37:55Z</time></trkpt><trkpt lat="52.0169821568" lon="-2.0004471391"><ele>75.60</ele><time>2011-11-02T10:37:59Z</time></trkpt><trkpt lat="52.0170396566" lon="-2.0003746357"><ele>76.08</ele><time>2011-11-02T10:38:08Z</time></trkpt><trkpt lat="52.0170396566" lon="-2.0003746357"><ele>75.60</ele><time>2011-11-02T10:38:16Z</time></trkpt><trkpt lat="52.0170645509" lon="-2.0003304631"><ele>77.04</ele><time>2011-11-02T10:38:27Z</time></trkpt><trkpt lat="52.0170899481" lon="-2.0003027190"><ele>75.60</ele><time>2011-11-02T10:38:30Z</time></trkpt><trkpt lat="52.0171349589" lon="-2.0002556127"><ele>76.08</ele><time>2011-11-02T10:38:35Z</time></trkpt><trkpt lat="52.0171549916" lon="-2.0002171397"><ele>74.64</ele><time>2011-11-02T10:38:38Z</time></trkpt><trkpt lat="52.0171791315" lon="-2.0002008788"><ele>76.08</ele><time>2011-11-02T10:38:40Z</time></trkpt><trkpt lat="52.0172387268" lon="-2.0001317281"><ele>75.12</ele><time>2011-11-02T10:38:46Z</time></trkpt><trkpt lat="52.0173151698" lon="-2.0000230148"><ele>74.16</ele><time>2011-11-02T10:38:54Z</time></trkpt><trkpt lat="52.0173761901" lon="-1.9999254495"><ele>74.16</ele><time>2011-11-02T10:39:02Z</time></trkpt><trkpt lat="52.0174126513" lon="-1.9998770859"><ele>74.16</ele><time>2011-11-02T10:39:06Z</time></trkpt><trkpt lat="52.0174247213" lon="-1.9998381101"><ele>74.16</ele><time>2011-11-02T10:39:09Z</time></trkpt><trkpt lat="52.0174947102" lon="-1.9997333363"><ele>73.68</ele><time>2011-11-02T10:39:18Z</time></trkpt><trkpt lat="52.0175662916" lon="-1.9996368606"><ele>72.72</ele><time>2011-11-02T10:39:26Z</time></trkpt><trkpt lat="52.0175737515" lon="-1.9996228628"><ele>72.72</ele><time>2011-11-02T10:39:27Z</time></trkpt><trkpt lat="52.0176679641" lon="-1.9995748345"><ele>73.20</ele><time>2011-11-02T10:39:36Z</time></trkpt><trkpt lat="52.0177335106" lon="-1.9995038398"><ele>72.72</ele><time>2011-11-02T10:39:44Z</time></trkpt><trkpt lat="52.0178091992" lon="-1.9994170032"><ele>72.72</ele><time>2011-11-02T10:39:52Z</time></trkpt><trkpt lat="52.0178288128" lon="-1.9994063582"><ele>70.79</ele><time>2011-11-02T10:39:54Z</time></trkpt><trkpt lat="52.0178699680" lon="-1.9993665442"><ele>69.83</ele><time>2011-11-02T10:39:59Z</time></trkpt><trkpt lat="52.0179260429" lon="-1.9993357826"><ele>69.83</ele><time>2011-11-02T10:40:05Z</time></trkpt><trkpt lat="52.0180153102" lon="-1.9992398936"><ele>69.35</ele><time>2011-11-02T10:40:14Z</time></trkpt><trkpt lat="52.0180884004" lon="-1.9991553202"><ele>68.87</ele><time>2011-11-02T10:40:22Z</time></trkpt><trkpt lat="52.0180966984" lon="-1.9991427474"><ele>68.87</ele><time>2011-11-02T10:40:23Z</time></trkpt><trkpt lat="52.0181839541" lon="-1.9990594313"><ele>67.91</ele><time>2011-11-02T10:40:32Z</time></trkpt><trkpt lat="52.0182525180" lon="-1.9989871792"><ele>66.95</ele><time>2011-11-02T10:40:39Z</time></trkpt><trkpt lat="52.0183319785" lon="-1.9989116583"><ele>66.47</ele><time>2011-11-02T10:40:47Z</time></trkpt><trkpt lat="52.0183810964" lon="-1.9988499675"><ele>66.47</ele><time>2011-11-02T10:40:53Z</time></trkpt><trkpt lat="52.0183979440" lon="-1.9988198765"><ele>66.47</ele><time>2011-11-02T10:41:02Z</time></trkpt><trkpt lat="52.0183979440" lon="-1.9988198765"><ele>66.47</ele><time>2011-11-02T10:41:10Z</time></trkpt><trkpt lat="52.0183979440" lon="-1.9988198765"><ele>68.39</ele><time>2011-11-02T10:41:22Z</time></trkpt><trkpt lat="52.0183979440" lon="-1.9988198765"><ele>67.91</ele><time>2011-11-02T10:41:35Z</time></trkpt><trkpt lat="52.0183976088" lon="-1.9988216367"><ele>67.91</ele><time>2011-11-02T10:41:46Z</time></trkpt><trkpt lat="52.0183976088" lon="-1.9988216367"><ele>67.43</ele><time>2011-11-02T10:41:56Z</time></trkpt><trkpt lat="52.0183949266" lon="-1.9987828285"><ele>68.87</ele><time>2011-11-02T10:42:02Z</time></trkpt><trkpt lat="52.0183949266" lon="-1.9987828285"><ele>68.39</ele><time>2011-11-02T10:42:10Z</time></trkpt><trkpt lat="52.0183949266" lon="-1.9987828285"><ele>67.91</ele><time>2011-11-02T10:42:21Z</time></trkpt><trkpt lat="52.0183949266" lon="-1.9987828285"><ele>67.43</ele><time>2011-11-02T10:42:30Z</time></trkpt><trkpt lat="52.0183949266" lon="-1.9987828285"><ele>67.43</ele><time>2011-11-02T10:42:39Z</time></trkpt><trkpt lat="52.0183947589" lon="-1.9987798948"><ele>68.39</ele><time>2011-11-02T10:42:45Z</time></trkpt><trkpt lat="52.0183186512" lon="-1.9986716844"><ele>69.83</ele><time>2011-11-02T10:42:54Z</time></trkpt><trkpt lat="52.0182315633" lon="-1.9985513203"><ele>70.31</ele><time>2011-11-02T10:43:04Z</time></trkpt><trkpt lat="52.0181912463" lon="-1.9985044654"><ele>70.31</ele><time>2011-11-02T10:43:09Z</time></trkpt><trkpt lat="52.0181077626" lon="-1.9984599575"><ele>71.27</ele><time>2011-11-02T10:43:18Z</time></trkpt><trkpt lat="52.0180458203" lon="-1.9984428585"><ele>72.72</ele><time>2011-11-02T10:43:25Z</time></trkpt><trkpt lat="52.0179858897" lon="-1.9984301180"><ele>73.68</ele><time>2011-11-02T10:43:32Z</time></trkpt><trkpt lat="52.0179624204" lon="-1.9984229095"><ele>73.68</ele><time>2011-11-02T10:43:35Z</time></trkpt><trkpt lat="52.0178753324" lon="-1.9984157011"><ele>74.64</ele><time>2011-11-02T10:43:44Z</time></trkpt><trkpt lat="52.0177987218" lon="-1.9983980153"><ele>76.56</ele><time>2011-11-02T10:43:52Z</time></trkpt><trkpt lat="52.0177340973" lon="-1.9984020386"><ele>77.52</ele><time>2011-11-02T10:43:59Z</time></trkpt><trkpt lat="52.0176810399" lon="-1.9983903039"><ele>78.00</ele><time>2011-11-02T10:44:05Z</time></trkpt><trkpt lat="52.0176491048" lon="-1.9983670022"><ele>78.97</ele><time>2011-11-02T10:44:12Z</time></trkpt><trkpt lat="52.0175970532" lon="-1.9983520824"><ele>79.45</ele><time>2011-11-02T10:44:20Z</time></trkpt><trkpt lat="52.0175909344" lon="-1.9983509928"><ele>79.93</ele><time>2011-11-02T10:44:21Z</time></trkpt><trkpt lat="52.0175761823" lon="-1.9983636495"><ele>79.93</ele><time>2011-11-02T10:44:23Z</time></trkpt><trkpt lat="52.0175020862" lon="-1.9983525015"><ele>81.37</ele><time>2011-11-02T10:44:31Z</time></trkpt><trkpt lat="52.0174633618" lon="-1.9983488135"><ele>80.89</ele><time>2011-11-02T10:44:37Z</time></trkpt><trkpt lat="52.0173904393" lon="-1.9983323012"><ele>83.29</ele><time>2011-11-02T10:44:46Z</time></trkpt><trkpt lat="52.0173355378" lon="-1.9983098377"><ele>83.29</ele><time>2011-11-02T10:44:52Z</time></trkpt><trkpt lat="52.0172867551" lon="-1.9983038865"><ele>84.73</ele><time>2011-11-02T10:44:59Z</time></trkpt><trkpt lat="52.0172373019" lon="-1.9983123522"><ele>86.18</ele><time>2011-11-02T10:45:05Z</time></trkpt><trkpt lat="52.0171904471" lon="-1.9983001146"><ele>87.62</ele><time>2011-11-02T10:45:11Z</time></trkpt><trkpt lat="52.0171266608" lon="-1.9983038865"><ele>88.58</ele><time>2011-11-02T10:45:18Z</time></trkpt><trkpt lat="52.0171166863" lon="-1.9983049762"><ele>89.06</ele><time>2011-11-02T10:45:19Z</time></trkpt><trkpt lat="52.0170414168" lon="-1.9983005337"><ele>90.50</ele><time>2011-11-02T10:45:27Z</time></trkpt><trkpt lat="52.0169519819" lon="-1.9983062334"><ele>92.42</ele><time>2011-11-02T10:45:36Z</time></trkpt><trkpt lat="52.0168996789" lon="-1.9983004499"><ele>92.90</ele><time>2011-11-02T10:45:42Z</time></trkpt><trkpt lat="52.0168083161" lon="-1.9982785732"><ele>94.83</ele><time>2011-11-02T10:45:53Z</time></trkpt><trkpt lat="52.0167328790" lon="-1.9982777350"><ele>96.75</ele><time>2011-11-02T10:46:02Z</time></trkpt><trkpt lat="52.0166966692" lon="-1.9982846919"><ele>97.23</ele><time>2011-11-02T10:46:10Z</time></trkpt><trkpt lat="52.0166616328" lon="-1.9982882123"><ele>97.71</ele><time>2011-11-02T10:46:17Z</time></trkpt><trkpt lat="52.0165950805" lon="-1.9982882962"><ele>99.63</ele><time>2011-11-02T10:46:24Z</time></trkpt><trkpt lat="52.0165435318" lon="-1.9982862007"><ele>100.60</ele><time>2011-11-02T10:46:31Z</time></trkpt><trkpt lat="52.0164841879" lon="-1.9983143639"><ele>103.00</ele><time>2011-11-02T10:46:41Z</time></trkpt><trkpt lat="52.0164841879" lon="-1.9983143639"><ele>103.00</ele><time>2011-11-02T10:46:47Z</time></trkpt><trkpt lat="52.0164793264" lon="-1.9983101729"><ele>103.48</ele><time>2011-11-02T10:46:52Z</time></trkpt><trkpt lat="52.0164793264" lon="-1.9983101729"><ele>103.48</ele><time>2011-11-02T10:47:01Z</time></trkpt><trkpt lat="52.0164741296" lon="-1.9983255956"><ele>103.48</ele><time>2011-11-02T10:47:07Z</time></trkpt><trkpt lat="52.0164461341" lon="-1.9983540941"><ele>103.48</ele><time>2011-11-02T10:47:15Z</time></trkpt><trkpt lat="52.0164461341" lon="-1.9983540941"><ele>104.92</ele><time>2011-11-02T10:47:24Z</time></trkpt><trkpt lat="52.0164461341" lon="-1.9983540941"><ele>105.40</ele><time>2011-11-02T10:47:34Z</time></trkpt><trkpt lat="52.0164461341" lon="-1.9983540941"><ele>103.96</ele><time>2011-11-02T10:47:53Z</time></trkpt><trkpt lat="52.0164355729" lon="-1.9983449578"><ele>104.44</ele><time>2011-11-02T10:48:10Z</time></trkpt><trkpt lat="52.0164355729" lon="-1.9983449578"><ele>104.44</ele><time>2011-11-02T10:48:21Z</time></trkpt><trkpt lat="52.0164355729" lon="-1.9983449578"><ele>103.96</ele><time>2011-11-02T10:48:32Z</time></trkpt><trkpt lat="52.0164359920" lon="-1.9983450416"><ele>103.96</ele><time>2011-11-02T10:48:47Z</time></trkpt><trkpt lat="52.0164359920" lon="-1.9983450416"><ele>104.44</ele><time>2011-11-02T10:49:05Z</time></trkpt><trkpt lat="52.0164350700" lon="-1.9983447064"><ele>103.48</ele><time>2011-11-02T10:49:20Z</time></trkpt><trkpt lat="52.0164350700" lon="-1.9983447064"><ele>103.96</ele><time>2011-11-02T10:49:36Z</time></trkpt><trkpt lat="52.0164350700" lon="-1.9983447064"><ele>104.44</ele><time>2011-11-02T10:49:52Z</time></trkpt><trkpt lat="52.0164343994" lon="-1.9983438682"><ele>103.96</ele><time>2011-11-02T10:50:07Z</time></trkpt><trkpt lat="52.0164343994" lon="-1.9983438682"><ele>104.92</ele><time>2011-11-02T10:50:27Z</time></trkpt><trkpt lat="52.0164330583" lon="-1.9983437844"><ele>104.44</ele><time>2011-11-02T10:50:47Z</time></trkpt><trkpt lat="52.0164330583" lon="-1.9983437844"><ele>103.96</ele><time>2011-11-02T10:51:06Z</time></trkpt><trkpt lat="52.0164333098" lon="-1.9983437844"><ele>103.48</ele><time>2011-11-02T10:51:23Z</time></trkpt><trkpt lat="52.0164193120" lon="-1.9983792398"><ele>103.48</ele><time>2011-11-02T10:51:29Z</time></trkpt><trkpt lat="52.0163967647" lon="-1.9984519947"><ele>103.48</ele><time>2011-11-02T10:51:35Z</time></trkpt><trkpt lat="52.0163819287" lon="-1.9985300303"><ele>104.44</ele><time>2011-11-02T10:51:41Z</time></trkpt><trkpt lat="52.0163774025" lon="-1.9985508174"><ele>105.40</ele><time>2011-11-02T10:51:42Z</time></trkpt><trkpt lat="52.0163634885" lon="-1.9986220635"><ele>104.92</ele><time>2011-11-02T10:51:47Z</time></trkpt><trkpt lat="52.0163452998" lon="-1.9987185393"><ele>105.40</ele><time>2011-11-02T10:51:52Z</time></trkpt><trkpt lat="52.0163375884" lon="-1.9987699203"><ele>105.40</ele><time>2011-11-02T10:51:56Z</time></trkpt><trkpt lat="52.0163373370" lon="-1.9988769572"><ele>103.96</ele><time>2011-11-02T10:52:03Z</time></trkpt><trkpt lat="52.0163082518" lon="-1.9990024343"><ele>103.96</ele><time>2011-11-02T10:52:11Z</time></trkpt><trkpt lat="52.0162592176" lon="-1.9991404004"><ele>104.92</ele><time>2011-11-02T10:52:20Z</time></trkpt><trkpt lat="52.0162553620" lon="-1.9991523866"><ele>104.92</ele><time>2011-11-02T10:52:21Z</time></trkpt><trkpt lat="52.0162102673" lon="-1.9992531370"><ele>105.40</ele><time>2011-11-02T10:52:29Z</time></trkpt><trkpt lat="52.0161324833" lon="-1.9993569888"><ele>106.84</ele><time>2011-11-02T10:52:38Z</time></trkpt><trkpt lat="52.0160864666" lon="-1.9994116388"><ele>108.77</ele><time>2011-11-02T10:52:47Z</time></trkpt><trkpt lat="52.0160578843" lon="-1.9994390476"><ele>109.25</ele><time>2011-11-02T10:52:54Z</time></trkpt><trkpt lat="52.0160017256" lon="-1.9994747546"><ele>109.25</ele><time>2011-11-02T10:53:03Z</time></trkpt><trkpt lat="52.0160017256" lon="-1.9994747546"><ele>111.17</ele><time>2011-11-02T10:53:06Z</time></trkpt><trkpt lat="52.0158982091" lon="-1.9995460007"><ele>111.17</ele><time>2011-11-02T10:53:15Z</time></trkpt><trkpt lat="52.0158757456" lon="-1.9995572325"><ele>112.13</ele><time>2011-11-02T10:53:17Z</time></trkpt><trkpt lat="52.0158060919" lon="-1.9995567296"><ele>113.09</ele><time>2011-11-02T10:53:28Z</time></trkpt><trkpt lat="52.0157282241" lon="-1.9995637704"><ele>114.05</ele><time>2011-11-02T10:53:36Z</time></trkpt><trkpt lat="52.0156772621" lon="-1.9995439891"><ele>116.94</ele><time>2011-11-02T10:53:44Z</time></trkpt><trkpt lat="52.0156110451" lon="-1.9995317515"><ele>118.38</ele><time>2011-11-02T10:53:52Z</time></trkpt><trkpt lat="52.0155528747" lon="-1.9995776005"><ele>118.86</ele><time>2011-11-02T10:54:00Z</time></trkpt><trkpt lat="52.0154959615" lon="-1.9995869044"><ele>119.34</ele><time>2011-11-02T10:54:09Z</time></trkpt><trkpt lat="52.0154451672" lon="-1.9995774329"><ele>120.30</ele><time>2011-11-02T10:54:16Z</time></trkpt><trkpt lat="52.0153897628" lon="-1.9995558914"><ele>121.26</ele><time>2011-11-02T10:54:25Z</time></trkpt><trkpt lat="52.0153530501" lon="-1.9995652791"><ele>123.19</ele><time>2011-11-02T10:54:32Z</time></trkpt><trkpt lat="52.0152892638" lon="-1.9995298237"><ele>124.15</ele><time>2011-11-02T10:54:39Z</time></trkpt><trkpt lat="52.0151999965" lon="-1.9995056000"><ele>125.11</ele><time>2011-11-02T10:54:46Z</time></trkpt><trkpt lat="52.0151698217" lon="-1.9995066896"><ele>125.11</ele><time>2011-11-02T10:54:54Z</time></trkpt><trkpt lat="52.0151698217" lon="-1.9995066896"><ele>125.59</ele><time>2011-11-02T10:55:02Z</time></trkpt><trkpt lat="52.0151284989" lon="-1.9994836394"><ele>125.59</ele><time>2011-11-02T10:55:11Z</time></trkpt><trkpt lat="52.0150496252" lon="-1.9994613435"><ele>126.07</ele><time>2011-11-02T10:55:20Z</time></trkpt><trkpt lat="52.0149683207" lon="-1.9994635228"><ele>127.51</ele><time>2011-11-02T10:55:30Z</time></trkpt><trkpt lat="52.0149527304" lon="-1.9994572364"><ele>127.51</ele><time>2011-11-02T10:55:40Z</time></trkpt><trkpt lat="52.0148587693" lon="-1.9994721562"><ele>129.92</ele><time>2011-11-02T10:55:49Z</time></trkpt><trkpt lat="52.0147519838" lon="-1.9995087013"><ele>130.40</ele><time>2011-11-02T10:55:56Z</time></trkpt><trkpt lat="52.0146830846" lon="-1.9995212741"><ele>131.36</ele><time>2011-11-02T10:56:05Z</time></trkpt><trkpt lat="52.0146830846" lon="-1.9995212741"><ele>132.32</ele><time>2011-11-02T10:56:15Z</time></trkpt><trkpt lat="52.0146830846" lon="-1.9995212741"><ele>131.84</ele><time>2011-11-02T10:56:24Z</time></trkpt><trkpt lat="52.0146508142" lon="-1.9995029178"><ele>132.32</ele><time>2011-11-02T10:56:42Z</time></trkpt><trkpt lat="52.0146508142" lon="-1.9995029178"><ele>131.36</ele><time>2011-11-02T10:56:54Z</time></trkpt><trkpt lat="52.0146508142" lon="-1.9995029178"><ele>131.36</ele><time>2011-11-02T10:57:06Z</time></trkpt><trkpt lat="52.0146508142" lon="-1.9995029178"><ele>131.84</ele><time>2011-11-02T10:57:18Z</time></trkpt><trkpt lat="52.0146443602" lon="-1.9995050970"><ele>131.36</ele><time>2011-11-02T10:57:31Z</time></trkpt><trkpt lat="52.0146443602" lon="-1.9995050970"><ele>131.84</ele><time>2011-11-02T10:57:43Z</time></trkpt><trkpt lat="52.0146443602" lon="-1.9995050970"><ele>131.84</ele><time>2011-11-02T10:57:53Z</time></trkpt><trkpt lat="52.0146369841" lon="-1.9995045941"><ele>131.84</ele><time>2011-11-02T10:58:02Z</time></trkpt><trkpt lat="52.0146369841" lon="-1.9995045941"><ele>132.32</ele><time>2011-11-02T10:58:14Z</time></trkpt><trkpt lat="52.0146187954" lon="-1.9994506147"><ele>131.36</ele><time>2011-11-02T10:58:21Z</time></trkpt><trkpt lat="52.0144325495" lon="-1.9993854873"><ele>132.80</ele><time>2011-11-02T10:58:27Z</time></trkpt><trkpt lat="52.0144325495" lon="-1.9993854873"><ele>132.32</ele><time>2011-11-02T10:58:41Z</time></trkpt><trkpt lat="52.0144325495" lon="-1.9993854873"><ele>131.84</ele><time>2011-11-02T10:58:58Z</time></trkpt><trkpt lat="52.0144240838" lon="-1.9993797038"><ele>132.32</ele><time>2011-11-02T10:59:17Z</time></trkpt><trkpt lat="52.0144240838" lon="-1.9993797038"><ele>131.84</ele><time>2011-11-02T10:59:33Z</time></trkpt><trkpt lat="52.0144162886" lon="-1.9993787818"><ele>132.80</ele><time>2011-11-02T10:59:49Z</time></trkpt><trkpt lat="52.0144162886" lon="-1.9993787818"><ele>132.32</ele><time>2011-11-02T11:00:05Z</time></trkpt><trkpt lat="52.0144162886" lon="-1.9993787818"><ele>132.80</ele><time>2011-11-02T11:00:20Z</time></trkpt><trkpt lat="52.0144130196" lon="-1.9993766863"><ele>132.32</ele><time>2011-11-02T11:00:35Z</time></trkpt><trkpt lat="52.0144130196" lon="-1.9993766863"><ele>132.32</ele><time>2011-11-02T11:00:52Z</time></trkpt><trkpt lat="52.0144033805" lon="-1.9993740879"><ele>132.80</ele><time>2011-11-02T11:01:15Z</time></trkpt><trkpt lat="52.0144033805" lon="-1.9993740879"><ele>132.32</ele><time>2011-11-02T11:01:33Z</time></trkpt><trkpt lat="52.0143913105" lon="-1.9993712381"><ele>133.28</ele><time>2011-11-02T11:01:47Z</time></trkpt><trkpt lat="52.0143913105" lon="-1.9993712381"><ele>132.32</ele><time>2011-11-02T11:02:04Z</time></trkpt><trkpt lat="52.0143913105" lon="-1.9993712381"><ele>133.28</ele><time>2011-11-02T11:02:22Z</time></trkpt><trkpt lat="52.0143784024" lon="-1.9993659575"><ele>132.32</ele><time>2011-11-02T11:02:40Z</time></trkpt><trkpt lat="52.0143784024" lon="-1.9993659575"><ele>132.80</ele><time>2011-11-02T11:02:56Z</time></trkpt><trkpt lat="52.0143620577" lon="-1.9993586652"><ele>132.80</ele><time>2011-11-02T11:03:13Z</time></trkpt><trkpt lat="52.0143620577" lon="-1.9993586652"><ele>132.80</ele><time>2011-11-02T11:03:26Z</time></trkpt><trkpt lat="52.0143620577" lon="-1.9993586652"><ele>132.32</ele><time>2011-11-02T11:03:41Z</time></trkpt><trkpt lat="52.0143490657" lon="-1.9993520435"><ele>132.80</ele><time>2011-11-02T11:03:58Z</time></trkpt><trkpt lat="52.0143334754" lon="-1.9993375428"><ele>132.32</ele><time>2011-11-02T11:04:10Z</time></trkpt><trkpt lat="52.0143089164" lon="-1.9993631076"><ele>131.84</ele><time>2011-11-02T11:04:23Z</time></trkpt><trkpt lat="52.0142813399" lon="-1.9993889239"><ele>132.32</ele><time>2011-11-02T11:04:31Z</time></trkpt><trkpt lat="52.0142813399" lon="-1.9993889239"><ele>131.84</ele><time>2011-11-02T11:04:44Z</time></trkpt><trkpt lat="52.0142671745" lon="-1.9993812125"><ele>132.80</ele><time>2011-11-02T11:04:53Z</time></trkpt><trkpt lat="52.0142661687" lon="-1.9993751775"><ele>132.80</ele><time>2011-11-02T11:05:04Z</time></trkpt><trkpt lat="52.0142695215" lon="-1.9993765187"><ele>129.43</ele><time>2011-11-02T11:05:10Z</time></trkpt><trkpt lat="52.0142627321" lon="-1.9993786141"><ele>132.32</ele><time>2011-11-02T11:05:12Z</time></trkpt><trkpt lat="52.0142627321" lon="-1.9993786141"><ele>132.32</ele><time>2011-11-02T11:05:23Z</time></trkpt><trkpt lat="52.0142627321" lon="-1.9993786141"><ele>132.32</ele><time>2011-11-02T11:05:41Z</time></trkpt><trkpt lat="52.0142576192" lon="-1.9993820507"><ele>132.32</ele><time>2011-11-02T11:05:59Z</time></trkpt><trkpt lat="52.0142576192" lon="-1.9993820507"><ele>131.36</ele><time>2011-11-02T11:06:09Z</time></trkpt><trkpt lat="52.0142576192" lon="-1.9993820507"><ele>131.84</ele><time>2011-11-02T11:06:24Z</time></trkpt><trkpt lat="52.0142622292" lon="-1.9993870798"><ele>132.80</ele><time>2011-11-02T11:06:36Z</time></trkpt><trkpt lat="52.0142576192" lon="-1.9993856549"><ele>132.80</ele><time>2011-11-02T11:06:43Z</time></trkpt><trkpt lat="52.0142576192" lon="-1.9993856549"><ele>132.80</ele><time>2011-11-02T11:06:52Z</time></trkpt><trkpt lat="52.0142576192" lon="-1.9993856549"><ele>131.84</ele><time>2011-11-02T11:07:06Z</time></trkpt><trkpt lat="52.0142596308" lon="-1.9993925281"><ele>132.32</ele><time>2011-11-02T11:07:21Z</time></trkpt><trkpt lat="52.0142596308" lon="-1.9993925281"><ele>132.80</ele><time>2011-11-02T11:07:35Z</time></trkpt><trkpt lat="52.0142596308" lon="-1.9993925281"><ele>131.84</ele><time>2011-11-02T11:07:50Z</time></trkpt><trkpt lat="52.0142274443" lon="-1.9994246308"><ele>131.84</ele><time>2011-11-02T11:07:58Z</time></trkpt><trkpt lat="52.0142064057" lon="-1.9994351920"><ele>133.76</ele><time>2011-11-02T11:08:01Z</time></trkpt><trkpt lat="52.0142064057" lon="-1.9994351920"><ele>133.28</ele><time>2011-11-02T11:08:12Z</time></trkpt><trkpt lat="52.0142064057" lon="-1.9994351920"><ele>132.80</ele><time>2011-11-02T11:08:24Z</time></trkpt><trkpt lat="52.0142064057" lon="-1.9994351920"><ele>132.80</ele><time>2011-11-02T11:08:38Z</time></trkpt><trkpt lat="52.0142014604" lon="-1.9994212780"><ele>134.24</ele><time>2011-11-02T11:08:50Z</time></trkpt><trkpt lat="52.0141954254" lon="-1.9994221162"><ele>134.72</ele><time>2011-11-02T11:08:58Z</time></trkpt><trkpt lat="52.0141612273" lon="-1.9994171709"><ele>135.68</ele><time>2011-11-02T11:09:05Z</time></trkpt><trkpt lat="52.0141211618" lon="-1.9994307496"><ele>136.16</ele><time>2011-11-02T11:09:10Z</time></trkpt><trkpt lat="52.0140852872" lon="-1.9994379580"><ele>135.68</ele><time>2011-11-02T11:09:14Z</time></trkpt><trkpt lat="52.0140531007" lon="-1.9994481001"><ele>138.57</ele><time>2011-11-02T11:09:24Z</time></trkpt><trkpt lat="52.0140165556" lon="-1.9994610921"><ele>140.01</ele><time>2011-11-02T11:09:32Z</time></trkpt><trkpt lat="52.0139608160" lon="-1.9994776882"><ele>141.45</ele><time>2011-11-02T11:09:39Z</time></trkpt><trkpt lat="52.0138787571" lon="-1.9994996488"><ele>142.41</ele><time>2011-11-02T11:09:46Z</time></trkpt><trkpt lat="52.0138075110" lon="-1.9995077793"><ele>144.34</ele><time>2011-11-02T11:09:53Z</time></trkpt><trkpt lat="52.0137253683" lon="-1.9995233696"><ele>144.82</ele><time>2011-11-02T11:10:00Z</time></trkpt><trkpt lat="52.0136823691" lon="-1.9995228667"><ele>146.74</ele><time>2011-11-02T11:10:06Z</time></trkpt><trkpt lat="52.0135842171" lon="-1.9995717332"><ele>148.18</ele><time>2011-11-02T11:10:14Z</time></trkpt><trkpt lat="52.0135506056" lon="-1.9995895866"><ele>148.18</ele><time>2011-11-02T11:10:16Z</time></trkpt><trkpt lat="52.0135200955" lon="-1.9996073563"><ele>142.41</ele><time>2011-11-02T11:10:18Z</time></trkpt><trkpt lat="52.0135091990" lon="-1.9996079430"><ele>149.14</ele><time>2011-11-02T11:10:19Z</time></trkpt><trkpt lat="52.0134438202" lon="-1.9996086974"><ele>149.62</ele><time>2011-11-02T11:10:26Z</time></trkpt><trkpt lat="52.0133841410" lon="-1.9996166602"><ele>151.06</ele><time>2011-11-02T11:10:35Z</time></trkpt><trkpt lat="52.0133148227" lon="-1.9996019080"><ele>153.47</ele><time>2011-11-02T11:10:46Z</time></trkpt><trkpt lat="52.0132812113" lon="-1.9996205997"><ele>152.51</ele><time>2011-11-02T11:10:55Z</time></trkpt><trkpt lat="52.0132718235" lon="-1.9996360224"><ele>153.47</ele><time>2011-11-02T11:11:03Z</time></trkpt><trkpt lat="52.0132514555" lon="-1.9996234495"><ele>151.54</ele><time>2011-11-02T11:11:10Z</time></trkpt><trkpt lat="52.0132313389" lon="-1.9996328373"><ele>152.03</ele><time>2011-11-02T11:11:16Z</time></trkpt><trkpt lat="52.0131831430" lon="-1.9995993935"><ele>152.51</ele><time>2011-11-02T11:11:25Z</time></trkpt><trkpt lat="52.0131327678" lon="-1.9995728228"><ele>152.03</ele><time>2011-11-02T11:11:31Z</time></trkpt><trkpt lat="52.0130761899" lon="-1.9995579030"><ele>153.47</ele><time>2011-11-02T11:11:39Z</time></trkpt><trkpt lat="52.0130663831" lon="-1.9995489344"><ele>152.99</ele><time>2011-11-02T11:11:45Z</time></trkpt><trkpt lat="52.0129918680" lon="-1.9995107967"><ele>153.47</ele><time>2011-11-02T11:11:53Z</time></trkpt><trkpt lat="52.0129007567" lon="-1.9994579908"><ele>152.99</ele><time>2011-11-02T11:12:00Z</time></trkpt><trkpt lat="52.0128028560" lon="-1.9993918575"><ele>152.99</ele><time>2011-11-02T11:12:09Z</time></trkpt><trkpt lat="52.0127548277" lon="-1.9993825536"><ele>152.99</ele><time>2011-11-02T11:12:12Z</time></trkpt><trkpt lat="52.0126475394" lon="-1.9993882533"><ele>153.95</ele><time>2011-11-02T11:12:20Z</time></trkpt><trkpt lat="52.0125743654" lon="-1.9993589167"><ele>153.95</ele><time>2011-11-02T11:12:29Z</time></trkpt><trkpt lat="52.0125610381" lon="-1.9993479364"><ele>154.91</ele><time>2011-11-02T11:12:37Z</time></trkpt><trkpt lat="52.0125610381" lon="-1.9993479364"><ele>154.43</ele><time>2011-11-02T11:12:44Z</time></trkpt><trkpt lat="52.0125610381" lon="-1.9993479364"><ele>153.95</ele><time>2011-11-02T11:12:52Z</time></trkpt><trkpt lat="52.0125610381" lon="-1.9993479364"><ele>156.35</ele><time>2011-11-02T11:13:00Z</time></trkpt><trkpt lat="52.0125363953" lon="-1.9992582500"><ele>156.83</ele><time>2011-11-02T11:13:08Z</time></trkpt><trkpt lat="52.0125363953" lon="-1.9992582500"><ele>155.87</ele><time>2011-11-02T11:13:13Z</time></trkpt><trkpt lat="52.0124278497" lon="-1.9991582539"><ele>156.83</ele><time>2011-11-02T11:13:21Z</time></trkpt><trkpt lat="52.0123544242" lon="-1.9990884326"><ele>156.83</ele><time>2011-11-02T11:13:27Z</time></trkpt><trkpt lat="52.0122288633" lon="-1.9989983272"><ele>158.75</ele><time>2011-11-02T11:13:33Z</time></trkpt><trkpt lat="52.0121352375" lon="-1.9989504665"><ele>158.75</ele><time>2011-11-02T11:13:40Z</time></trkpt><trkpt lat="52.0120478980" lon="-1.9988726825"><ele>158.27</ele><time>2011-11-02T11:13:48Z</time></trkpt><trkpt lat="52.0119747240" lon="-1.9987830799"><ele>159.24</ele><time>2011-11-02T11:13:56Z</time></trkpt><trkpt lat="52.0119195711" lon="-1.9987187907"><ele>159.72</ele><time>2011-11-02T11:14:01Z</time></trkpt><trkpt lat="52.0118607301" lon="-1.9986643922"><ele>159.72</ele><time>2011-11-02T11:14:08Z</time></trkpt><trkpt lat="52.0118124504" lon="-1.9986484665"><ele>160.68</ele><time>2011-11-02T11:14:13Z</time></trkpt><trkpt lat="52.0117843710" lon="-1.9986136816"><ele>160.20</ele><time>2011-11-02T11:14:20Z</time></trkpt><trkpt lat="52.0117096882" lon="-1.9985593669"><ele>160.20</ele><time>2011-11-02T11:14:29Z</time></trkpt><trkpt lat="52.0116956066" lon="-1.9985413458"><ele>159.72</ele><time>2011-11-02T11:14:31Z</time></trkpt><trkpt lat="52.0116314851" lon="-1.9984731171"><ele>160.20</ele><time>2011-11-02T11:14:38Z</time></trkpt><trkpt lat="52.0116121229" lon="-1.9984509889"><ele>160.20</ele><time>2011-11-02T11:14:44Z</time></trkpt><trkpt lat="52.0115862228" lon="-1.9983384199"><ele>160.20</ele><time>2011-11-02T11:14:51Z</time></trkpt><trkpt lat="52.0115390327" lon="-1.9982581213"><ele>160.20</ele><time>2011-11-02T11:14:57Z</time></trkpt><trkpt lat="52.0115027390" lon="-1.9981562812"><ele>159.72</ele><time>2011-11-02T11:15:03Z</time></trkpt><trkpt lat="52.0114704687" lon="-1.9980649184"><ele>158.75</ele><time>2011-11-02T11:15:10Z</time></trkpt><trkpt lat="52.0114428084" lon="-1.9980121125"><ele>157.79</ele><time>2011-11-02T11:15:16Z</time></trkpt><trkpt lat="52.0114605781" lon="-1.9979013875"><ele>158.27</ele><time>2011-11-02T11:15:23Z</time></trkpt><trkpt lat="52.0114533696" lon="-1.9978301413"><ele>161.64</ele><time>2011-11-02T11:15:29Z</time></trkpt><trkpt lat="52.0114546269" lon="-1.9977383595"><ele>161.16</ele><time>2011-11-02T11:15:36Z</time></trkpt><trkpt lat="52.0114381984" lon="-1.9976485893"><ele>159.72</ele><time>2011-11-02T11:15:43Z</time></trkpt><trkpt lat="52.0114304870" lon="-1.9975699671"><ele>160.68</ele><time>2011-11-02T11:15:50Z</time></trkpt><trkpt lat="52.0114133880" lon="-1.9974731561"><ele>160.20</ele><time>2011-11-02T11:15:58Z</time></trkpt><trkpt lat="52.0114008989" lon="-1.9973812066"><ele>160.20</ele><time>2011-11-02T11:16:05Z</time></trkpt><trkpt lat="52.0113781840" lon="-1.9973013271"><ele>159.72</ele><time>2011-11-02T11:16:13Z</time></trkpt><trkpt lat="52.0113625936" lon="-1.9972376246"><ele>159.72</ele><time>2011-11-02T11:16:19Z</time></trkpt><trkpt lat="52.0113426447" lon="-1.9971657917"><ele>159.72</ele><time>2011-11-02T11:16:25Z</time></trkpt><trkpt lat="52.0113404654" lon="-1.9971221220"><ele>160.68</ele><time>2011-11-02T11:16:31Z</time></trkpt><trkpt lat="52.0113019925" lon="-1.9970269036"><ele>160.68</ele><time>2011-11-02T11:16:39Z</time></trkpt><trkpt lat="52.0112713147" lon="-1.9969524723"><ele>160.20</ele><time>2011-11-02T11:16:44Z</time></trkpt><trkpt lat="52.0112211071" lon="-1.9968211278"><ele>161.16</ele><time>2011-11-02T11:16:50Z</time></trkpt><trkpt lat="52.0112148207" lon="-1.9967057928"><ele>160.68</ele><time>2011-11-02T11:16:57Z</time></trkpt><trkpt lat="52.0111920219" lon="-1.9965906255"><ele>159.72</ele><time>2011-11-02T11:17:06Z</time></trkpt><trkpt lat="52.0111778565" lon="-1.9964949042"><ele>161.16</ele><time>2011-11-02T11:17:13Z</time></trkpt><trkpt lat="52.0111667924" lon="-1.9964498095"><ele>160.68</ele><time>2011-11-02T11:17:21Z</time></trkpt><trkpt lat="52.0111493580" lon="-1.9963721093"><ele>161.16</ele><time>2011-11-02T11:17:28Z</time></trkpt><trkpt lat="52.0111106336" lon="-1.9962613843"><ele>160.68</ele><time>2011-11-02T11:17:35Z</time></trkpt><trkpt lat="52.0110755134" lon="-1.9961234182"><ele>160.68</ele><time>2011-11-02T11:17:42Z</time></trkpt><trkpt lat="52.0110141579" lon="-1.9960167166"><ele>161.16</ele><time>2011-11-02T11:17:49Z</time></trkpt><trkpt lat="52.0109592564" lon="-1.9959344063"><ele>160.68</ele><time>2011-11-02T11:17:56Z</time></trkpt><trkpt lat="52.0109129045" lon="-1.9958531018"><ele>161.16</ele><time>2011-11-02T11:18:03Z</time></trkpt><trkpt lat="52.0109084621" lon="-1.9958457258"><ele>161.16</ele><time>2011-11-02T11:18:04Z</time></trkpt><trkpt lat="52.0108757727" lon="-1.9957781676"><ele>161.64</ele><time>2011-11-02T11:18:13Z</time></trkpt><trkpt lat="52.0108619425" lon="-1.9957624096"><ele>161.16</ele><time>2011-11-02T11:18:25Z</time></trkpt><trkpt lat="52.0108619425" lon="-1.9957624096"><ele>161.16</ele><time>2011-11-02T11:18:40Z</time></trkpt><trkpt lat="52.0108420774" lon="-1.9957874715"><ele>161.16</ele><time>2011-11-02T11:18:47Z</time></trkpt><trkpt lat="52.0108231343" lon="-1.9957837835"><ele>161.16</ele><time>2011-11-02T11:18:56Z</time></trkpt><trkpt lat="52.0108040236" lon="-1.9957669359"><ele>161.64</ele><time>2011-11-02T11:19:04Z</time></trkpt><trkpt lat="52.0107941329" lon="-1.9957192428"><ele>162.12</ele><time>2011-11-02T11:19:13Z</time></trkpt><trkpt lat="52.0107854996" lon="-1.9956943486"><ele>161.64</ele><time>2011-11-02T11:19:22Z</time></trkpt><trkpt lat="52.0107430033" lon="-1.9956484996"><ele>162.12</ele><time>2011-11-02T11:19:31Z</time></trkpt><trkpt lat="52.0106938854" lon="-1.9956270419"><ele>161.64</ele><time>2011-11-02T11:19:38Z</time></trkpt><trkpt lat="52.0106477011" lon="-1.9955926761"><ele>161.64</ele><time>2011-11-02T11:19:46Z</time></trkpt><trkpt lat="52.0106405765" lon="-1.9955842942"><ele>160.68</ele><time>2011-11-02T11:19:47Z</time></trkpt><trkpt lat="52.0105651394" lon="-1.9955283031"><ele>161.64</ele><time>2011-11-02T11:19:55Z</time></trkpt><trkpt lat="52.0104928035" lon="-1.9955123775"><ele>161.64</ele><time>2011-11-02T11:20:02Z</time></trkpt><trkpt lat="52.0104592759" lon="-1.9954858907"><ele>162.60</ele><time>2011-11-02T11:20:10Z</time></trkpt><trkpt lat="52.0104592759" lon="-1.9954858907"><ele>162.12</ele><time>2011-11-02T11:20:17Z</time></trkpt><trkpt lat="52.0104829129" lon="-1.9954545423"><ele>162.12</ele><time>2011-11-02T11:20:25Z</time></trkpt><trkpt lat="52.0104353037" lon="-1.9954314083"><ele>162.60</ele><time>2011-11-02T11:20:35Z</time></trkpt><trkpt lat="52.0103679970" lon="-1.9954098668"><ele>163.56</ele><time>2011-11-02T11:20:42Z</time></trkpt><trkpt lat="52.0103172027" lon="-1.9953998085"><ele>162.60</ele><time>2011-11-02T11:20:49Z</time></trkpt><trkpt lat="52.0102700125" lon="-1.9953739084"><ele>163.08</ele><time>2011-11-02T11:20:57Z</time></trkpt><trkpt lat="52.0102038793" lon="-1.9953359384"><ele>163.08</ele><time>2011-11-02T11:21:03Z</time></trkpt><trkpt lat="52.0101219881" lon="-1.9953234494"><ele>163.56</ele><time>2011-11-02T11:21:10Z</time></trkpt><trkpt lat="52.0100483950" lon="-1.9953031652"><ele>162.60</ele><time>2011-11-02T11:21:15Z</time></trkpt><trkpt lat="52.0099634025" lon="-1.9952664524"><ele>163.56</ele><time>2011-11-02T11:21:23Z</time></trkpt><trkpt lat="52.0098968502" lon="-1.9952241238"><ele>164.52</ele><time>2011-11-02T11:21:31Z</time></trkpt><trkpt lat="52.0098091755" lon="-1.9951594993"><ele>165.00</ele><time>2011-11-02T11:21:40Z</time></trkpt><trkpt lat="52.0097326487" lon="-1.9950863253"><ele>165.00</ele><time>2011-11-02T11:21:50Z</time></trkpt><trkpt lat="52.0096864644" lon="-1.9950373750"><ele>165.00</ele><time>2011-11-02T11:21:59Z</time></trkpt><trkpt lat="52.0095853787" lon="-1.9949658774"><ele>165.00</ele><time>2011-11-02T11:22:07Z</time></trkpt><trkpt lat="52.0095122885" lon="-1.9948730059"><ele>165.48</ele><time>2011-11-02T11:22:14Z</time></trkpt><trkpt lat="52.0094731450" lon="-1.9947699923"><ele>165.00</ele><time>2011-11-02T11:22:24Z</time></trkpt><trkpt lat="52.0094731450" lon="-1.9947699923"><ele>165.48</ele><time>2011-11-02T11:22:28Z</time></trkpt><trkpt lat="52.0093904156" lon="-1.9946638774"><ele>164.52</ele><time>2011-11-02T11:22:36Z</time></trkpt><trkpt lat="52.0093227737" lon="-1.9945613667"><ele>165.96</ele><time>2011-11-02T11:22:42Z</time></trkpt><trkpt lat="52.0093214326" lon="-1.9945420045"><ele>165.00</ele><time>2011-11-02T11:22:44Z</time></trkpt><trkpt lat="52.0092937723" lon="-1.9944557548"><ele>165.48</ele><time>2011-11-02T11:22:50Z</time></trkpt><trkpt lat="52.0092132222" lon="-1.9943781383"><ele>165.48</ele><time>2011-11-02T11:22:56Z</time></trkpt><trkpt lat="52.0092015713" lon="-1.9943430182"><ele>165.48</ele><time>2011-11-02T11:22:58Z</time></trkpt><trkpt lat="52.0091525372" lon="-1.9942172058"><ele>165.96</ele><time>2011-11-02T11:23:05Z</time></trkpt><trkpt lat="52.0091503579" lon="-1.9941379968"><ele>165.00</ele><time>2011-11-02T11:23:10Z</time></trkpt><trkpt lat="52.0091243740" lon="-1.9940468017"><ele>165.48</ele><time>2011-11-02T11:23:17Z</time></trkpt><trkpt lat="52.0091362763" lon="-1.9939841051"><ele>165.48</ele><time>2011-11-02T11:23:22Z</time></trkpt><trkpt lat="52.0091362763" lon="-1.9939841051"><ele>165.48</ele><time>2011-11-02T11:23:34Z</time></trkpt><trkpt lat="52.0091362763" lon="-1.9939841051"><ele>165.96</ele><time>2011-11-02T11:23:46Z</time></trkpt><trkpt lat="52.0091392100" lon="-1.9939806685"><ele>165.48</ele><time>2011-11-02T11:24:01Z</time></trkpt><trkpt lat="52.0091392100" lon="-1.9939806685"><ele>165.96</ele><time>2011-11-02T11:24:11Z</time></trkpt><trkpt lat="52.0091392100" lon="-1.9939806685"><ele>166.45</ele><time>2011-11-02T11:24:27Z</time></trkpt><trkpt lat="52.0091392100" lon="-1.9939806685"><ele>166.93</ele><time>2011-11-02T11:24:39Z</time></trkpt><trkpt lat="52.0091436524" lon="-1.9939594623"><ele>165.96</ele><time>2011-11-02T11:24:53Z</time></trkpt><trkpt lat="52.0090994798" lon="-1.9939716160"><ele>165.96</ele><time>2011-11-02T11:25:02Z</time></trkpt><trkpt lat="52.0090521220" lon="-1.9939561095"><ele>165.96</ele><time>2011-11-02T11:25:11Z</time></trkpt><trkpt lat="52.0089932811" lon="-1.9938971847"><ele>166.93</ele><time>2011-11-02T11:25:20Z</time></trkpt><trkpt lat="52.0089359488" lon="-1.9938341528"><ele>166.45</ele><time>2011-11-02T11:25:27Z</time></trkpt><trkpt lat="52.0089291595" lon="-1.9937315583"><ele>166.93</ele><time>2011-11-02T11:25:34Z</time></trkpt><trkpt lat="52.0089095458" lon="-1.9936424587"><ele>166.93</ele><time>2011-11-02T11:25:39Z</time></trkpt><trkpt lat="52.0088667143" lon="-1.9935660157"><ele>167.41</ele><time>2011-11-02T11:25:44Z</time></trkpt><trkpt lat="52.0088636130" lon="-1.9935357571"><ele>166.93</ele><time>2011-11-02T11:25:47Z</time></trkpt><trkpt lat="52.0087989885" lon="-1.9934388623"><ele>166.45</ele><time>2011-11-02T11:25:53Z</time></trkpt><trkpt lat="52.0087218750" lon="-1.9933588989"><ele>166.45</ele><time>2011-11-02T11:26:01Z</time></trkpt><trkpt lat="52.0086515509" lon="-1.9932951964"><ele>165.96</ele><time>2011-11-02T11:26:07Z</time></trkpt><trkpt lat="52.0086154249" lon="-1.9932304882"><ele>167.41</ele><time>2011-11-02T11:26:13Z</time></trkpt><trkpt lat="52.0085762814" lon="-1.9931535423"><ele>166.93</ele><time>2011-11-02T11:26:19Z</time></trkpt><trkpt lat="52.0085204579" lon="-1.9930433203"><ele>167.41</ele><time>2011-11-02T11:26:27Z</time></trkpt><trkpt lat="52.0084830746" lon="-1.9929688051"><ele>166.93</ele><time>2011-11-02T11:26:33Z</time></trkpt><trkpt lat="52.0084155165" lon="-1.9928380474"><ele>167.41</ele><time>2011-11-02T11:26:42Z</time></trkpt><trkpt lat="52.0083735231" lon="-1.9927716628"><ele>166.93</ele><time>2011-11-02T11:26:47Z</time></trkpt><trkpt lat="52.0083142631" lon="-1.9926759414"><ele>166.93</ele><time>2011-11-02T11:26:54Z</time></trkpt><trkpt lat="52.0082428493" lon="-1.9925979059"><ele>166.93</ele><time>2011-11-02T11:27:01Z</time></trkpt><trkpt lat="52.0081949886" lon="-1.9924978260"><ele>167.41</ele><time>2011-11-02T11:27:08Z</time></trkpt><trkpt lat="52.0081657358" lon="-1.9924322795"><ele>167.41</ele><time>2011-11-02T11:27:12Z</time></trkpt><trkpt lat="52.0081171207" lon="-1.9923657272"><ele>167.41</ele><time>2011-11-02T11:27:16Z</time></trkpt><trkpt lat="52.0080969203" lon="-1.9922869373"><ele>166.93</ele><time>2011-11-02T11:27:21Z</time></trkpt><trkpt lat="52.0080929808" lon="-1.9922604505"><ele>166.93</ele><time>2011-11-02T11:27:23Z</time></trkpt><trkpt lat="52.0080684219" lon="-1.9922263362"><ele>166.93</ele><time>2011-11-02T11:27:26Z</time></trkpt><trkpt lat="52.0080455393" lon="-1.9921078999"><ele>166.45</ele><time>2011-11-02T11:27:32Z</time></trkpt><trkpt lat="52.0080327988" lon="-1.9919571094"><ele>166.93</ele><time>2011-11-02T11:27:38Z</time></trkpt><trkpt lat="52.0080371574" lon="-1.9918976817"><ele>167.41</ele><time>2011-11-02T11:27:42Z</time></trkpt><trkpt lat="52.0079989359" lon="-1.9918241724"><ele>166.93</ele><time>2011-11-02T11:27:48Z</time></trkpt><trkpt lat="52.0079659950" lon="-1.9917442091"><ele>166.45</ele><time>2011-11-02T11:27:54Z</time></trkpt><trkpt lat="52.0079654921" lon="-1.9916082546"><ele>166.45</ele><time>2011-11-02T11:28:01Z</time></trkpt><trkpt lat="52.0079609659" lon="-1.9915417861"><ele>166.93</ele><time>2011-11-02T11:28:06Z</time></trkpt><trkpt lat="52.0079581998" lon="-1.9915173110"><ele>166.45</ele><time>2011-11-02T11:28:07Z</time></trkpt><trkpt lat="52.0079571102" lon="-1.9914373476"><ele>166.45</ele><time>2011-11-02T11:28:11Z</time></trkpt><trkpt lat="52.0079458784" lon="-1.9913675264"><ele>166.45</ele><time>2011-11-02T11:28:15Z</time></trkpt><trkpt lat="52.0079151168" lon="-1.9912418816"><ele>167.41</ele><time>2011-11-02T11:28:22Z</time></trkpt><trkpt lat="52.0079223253" lon="-1.9911843818"><ele>166.93</ele><time>2011-11-02T11:28:25Z</time></trkpt><trkpt lat="52.0079266839" lon="-1.9910863135"><ele>166.45</ele><time>2011-11-02T11:28:31Z</time></trkpt><trkpt lat="52.0079091657" lon="-1.9910952821"><ele>166.93</ele><time>2011-11-02T11:28:36Z</time></trkpt><trkpt lat="52.0079064835" lon="-1.9910944439"><ele>166.45</ele><time>2011-11-02T11:28:48Z</time></trkpt><trkpt lat="52.0079064835" lon="-1.9910944439"><ele>165.96</ele><time>2011-11-02T11:28:50Z</time></trkpt><trkpt lat="52.0078941621" lon="-1.9910094514"><ele>166.93</ele><time>2011-11-02T11:28:58Z</time></trkpt><trkpt lat="52.0078942459" lon="-1.9908910152"><ele>165.96</ele><time>2011-11-02T11:29:09Z</time></trkpt><trkpt lat="52.0078851096" lon="-1.9908233732"><ele>165.96</ele><time>2011-11-02T11:29:14Z</time></trkpt><trkpt lat="52.0078740455" lon="-1.9907643646"><ele>165.48</ele><time>2011-11-02T11:29:25Z</time></trkpt><trkpt lat="52.0078759734" lon="-1.9907391351"><ele>165.00</ele><time>2011-11-02T11:29:26Z</time></trkpt><trkpt lat="52.0078405179" lon="-1.9906136580"><ele>164.52</ele><time>2011-11-02T11:29:32Z</time></trkpt><trkpt lat="52.0078344829" lon="-1.9905662164"><ele>165.48</ele><time>2011-11-02T11:29:36Z</time></trkpt><trkpt lat="52.0078257658" lon="-1.9904593471"><ele>165.00</ele><time>2011-11-02T11:29:42Z</time></trkpt><trkpt lat="52.0077987760" lon="-1.9903401565"><ele>164.52</ele><time>2011-11-02T11:29:48Z</time></trkpt><trkpt lat="52.0077950880" lon="-1.9903059583"><ele>163.56</ele><time>2011-11-02T11:29:52Z</time></trkpt><trkpt lat="52.0077811740" lon="-1.9902757835"><ele>164.52</ele><time>2011-11-02T11:29:54Z</time></trkpt><trkpt lat="52.0077786595" lon="-1.9901713450"><ele>164.52</ele><time>2011-11-02T11:30:00Z</time></trkpt><trkpt lat="52.0077757258" lon="-1.9901538268"><ele>164.52</ele><time>2011-11-02T11:30:01Z</time></trkpt><trkpt lat="52.0077108499" lon="-1.9900545850"><ele>164.04</ele><time>2011-11-02T11:30:09Z</time></trkpt><trkpt lat="52.0076974388" lon="-1.9900406711"><ele>165.00</ele><time>2011-11-02T11:30:10Z</time></trkpt><trkpt lat="52.0075772423" lon="-1.9899920560"><ele>163.08</ele><time>2011-11-02T11:30:18Z</time></trkpt><trkpt lat="52.0075707044" lon="-1.9900061376"><ele>164.52</ele><time>2011-11-02T11:30:21Z</time></trkpt><trkpt lat="52.0075655915" lon="-1.9900044613"><ele>164.04</ele><time>2011-11-02T11:30:22Z</time></trkpt><trkpt lat="52.0075306389" lon="-1.9899259228"><ele>163.56</ele><time>2011-11-02T11:30:27Z</time></trkpt><trkpt lat="52.0074405335" lon="-1.9897834305"><ele>163.08</ele><time>2011-11-02T11:30:36Z</time></trkpt><trkpt lat="52.0073806867" lon="-1.9897015393"><ele>164.04</ele><time>2011-11-02T11:30:43Z</time></trkpt><trkpt lat="52.0073748194" lon="-1.9896965101"><ele>164.04</ele><time>2011-11-02T11:30:45Z</time></trkpt><trkpt lat="52.0073067583" lon="-1.9896529242"><ele>164.04</ele><time>2011-11-02T11:30:51Z</time></trkpt><trkpt lat="52.0072461572" lon="-1.9896155410"><ele>163.56</ele><time>2011-11-02T11:30:56Z</time></trkpt><trkpt lat="52.0072461572" lon="-1.9896155410"><ele>164.52</ele><time>2011-11-02T11:31:03Z</time></trkpt><trkpt lat="52.0071718097" lon="-1.9895254355"><ele>164.52</ele><time>2011-11-02T11:31:09Z</time></trkpt><trkpt lat="52.0071187522" lon="-1.9894346595"><ele>164.52</ele><time>2011-11-02T11:31:14Z</time></trkpt><trkpt lat="52.0071065146" lon="-1.9894080050"><ele>164.04</ele><time>2011-11-02T11:31:16Z</time></trkpt><trkpt lat="52.0071070176" lon="-1.9892687816"><ele>163.08</ele><time>2011-11-02T11:31:22Z</time></trkpt><trkpt lat="52.0071174949" lon="-1.9892319012"><ele>165.00</ele><time>2011-11-02T11:31:23Z</time></trkpt><trkpt lat="52.0070988033" lon="-1.9890825357"><ele>164.04</ele><time>2011-11-02T11:31:30Z</time></trkpt><trkpt lat="52.0070961211" lon="-1.9890638441"><ele>164.04</ele><time>2011-11-02T11:31:32Z</time></trkpt><trkpt lat="52.0070925169" lon="-1.9890278019"><ele>164.04</ele><time>2011-11-02T11:31:34Z</time></trkpt><trkpt lat="52.0071066823" lon="-1.9889000617"><ele>164.52</ele><time>2011-11-02T11:31:40Z</time></trkpt><trkpt lat="52.0070995577" lon="-1.9888698868"><ele>163.56</ele><time>2011-11-02T11:31:42Z</time></trkpt><trkpt lat="52.0070915949" lon="-1.9888055138"><ele>163.08</ele><time>2011-11-02T11:31:49Z</time></trkpt><trkpt lat="52.0070805307" lon="-1.9887190126"><ele>163.56</ele><time>2011-11-02T11:31:54Z</time></trkpt><trkpt lat="52.0070791058" lon="-1.9887121394"><ele>163.56</ele><time>2011-11-02T11:31:55Z</time></trkpt><trkpt lat="52.0070746634" lon="-1.9886758458"><ele>163.08</ele><time>2011-11-02T11:32:01Z</time></trkpt><trkpt lat="52.0070672035" lon="-1.9886206090"><ele>162.60</ele><time>2011-11-02T11:32:07Z</time></trkpt><trkpt lat="52.0070568100" lon="-1.9885439146"><ele>163.08</ele><time>2011-11-02T11:32:12Z</time></trkpt><trkpt lat="52.0070556365" lon="-1.9885089621"><ele>163.56</ele><time>2011-11-02T11:32:15Z</time></trkpt><trkpt lat="52.0070317481" lon="-1.9884978142"><ele>163.08</ele><time>2011-11-02T11:32:23Z</time></trkpt><trkpt lat="52.0070317481" lon="-1.9884978142"><ele>163.56</ele><time>2011-11-02T11:32:45Z</time></trkpt><trkpt lat="52.0070336759" lon="-1.9884606823"><ele>164.04</ele><time>2011-11-02T11:32:54Z</time></trkpt><trkpt lat="52.0070404653" lon="-1.9883066230"><ele>164.04</ele><time>2011-11-02T11:32:59Z</time></trkpt><trkpt lat="52.0070471708" lon="-1.9882963132"><ele>165.96</ele><time>2011-11-02T11:33:01Z</time></trkpt><trkpt lat="52.0070490148" lon="-1.9882122427"><ele>164.52</ele><time>2011-11-02T11:33:05Z</time></trkpt><trkpt lat="52.0070126373" lon="-1.9879845902"><ele>164.52</ele><time>2011-11-02T11:33:11Z</time></trkpt><trkpt lat="52.0070084464" lon="-1.9879209716"><ele>163.08</ele><time>2011-11-02T11:33:15Z</time></trkpt><trkpt lat="52.0070045907" lon="-1.9878971670"><ele>162.60</ele><time>2011-11-02T11:33:19Z</time></trkpt><trkpt lat="52.0069993101" lon="-1.9878735300"><ele>163.08</ele><time>2011-11-02T11:33:20Z</time></trkpt><trkpt lat="52.0069698896" lon="-1.9877554290"><ele>163.56</ele><time>2011-11-02T11:33:25Z</time></trkpt><trkpt lat="52.0069121383" lon="-1.9875901379"><ele>163.56</ele><time>2011-11-02T11:33:30Z</time></trkpt><trkpt lat="52.0069075283" lon="-1.9875220768"><ele>164.04</ele><time>2011-11-02T11:33:36Z</time></trkpt><trkpt lat="52.0069044270" lon="-1.9875072408"><ele>163.56</ele><time>2011-11-02T11:33:37Z</time></trkpt><trkpt lat="52.0068943687" lon="-1.9873184804"><ele>164.04</ele><time>2011-11-02T11:33:44Z</time></trkpt><trkpt lat="52.0068750065" lon="-1.9871899020"><ele>163.56</ele><time>2011-11-02T11:33:50Z</time></trkpt><trkpt lat="52.0068664569" lon="-1.9871395268"><ele>163.08</ele><time>2011-11-02T11:33:53Z</time></trkpt><trkpt lat="52.0068693906" lon="-1.9870262872"><ele>163.08</ele><time>2011-11-02T11:34:00Z</time></trkpt><trkpt lat="52.0068962965" lon="-1.9868502673"><ele>164.04</ele><time>2011-11-02T11:34:08Z</time></trkpt><trkpt lat="52.0068933628" lon="-1.9866800308"><ele>163.56</ele><time>2011-11-02T11:34:17Z</time></trkpt><trkpt lat="52.0068958774" lon="-1.9864474330"><ele>162.60</ele><time>2011-11-02T11:34:29Z</time></trkpt><trkpt lat="52.0068983082" lon="-1.9862749334"><ele>162.60</ele><time>2011-11-02T11:34:38Z</time></trkpt><trkpt lat="52.0068817958" lon="-1.9860927947"><ele>161.64</ele><time>2011-11-02T11:34:48Z</time></trkpt><trkpt lat="52.0068812929" lon="-1.9860762823"><ele>161.64</ele><time>2011-11-02T11:34:49Z</time></trkpt><trkpt lat="52.0068708155" lon="-1.9859211333"><ele>160.68</ele><time>2011-11-02T11:34:58Z</time></trkpt><trkpt lat="52.0068745036" lon="-1.9857920520"><ele>159.72</ele><time>2011-11-02T11:35:06Z</time></trkpt><trkpt lat="52.0068668760" lon="-1.9857392460"><ele>158.27</ele><time>2011-11-02T11:35:10Z</time></trkpt><trkpt lat="52.0068661217" lon="-1.9857114181"><ele>157.79</ele><time>2011-11-02T11:35:12Z</time></trkpt><trkpt lat="52.0068575721" lon="-1.9856684189"><ele>156.35</ele><time>2011-11-02T11:35:19Z</time></trkpt><trkpt lat="52.0068147406" lon="-1.9855535869"><ele>156.35</ele><time>2011-11-02T11:35:24Z</time></trkpt><trkpt lat="52.0068123937" lon="-1.9854311273"><ele>153.95</ele><time>2011-11-02T11:35:27Z</time></trkpt><trkpt lat="52.0068100467" lon="-1.9852712005"><ele>152.51</ele><time>2011-11-02T11:35:31Z</time></trkpt><trkpt lat="52.0068063587" lon="-1.9851988647"><ele>152.03</ele><time>2011-11-02T11:35:36Z</time></trkpt><trkpt lat="52.0068063587" lon="-1.9851988647"><ele>151.06</ele><time>2011-11-02T11:35:44Z</time></trkpt><trkpt lat="52.0068063587" lon="-1.9851988647"><ele>152.03</ele><time>2011-11-02T11:35:45Z</time></trkpt><trkpt lat="52.0067931153" lon="-1.9851747248"><ele>150.58</ele><time>2011-11-02T11:35:50Z</time></trkpt><trkpt lat="52.0067823026" lon="-1.9851680193"><ele>150.58</ele><time>2011-11-02T11:35:51Z</time></trkpt><trkpt lat="52.0067459252" lon="-1.9850987848"><ele>148.66</ele><time>2011-11-02T11:35:54Z</time></trkpt><trkpt lat="52.0067341905" lon="-1.9850544445"><ele>148.18</ele><time>2011-11-02T11:35:56Z</time></trkpt><trkpt lat="52.0066626929" lon="-1.9850039855"><ele>146.74</ele><time>2011-11-02T11:36:01Z</time></trkpt><trkpt lat="52.0066286623" lon="-1.9849583041"><ele>145.78</ele><time>2011-11-02T11:36:06Z</time></trkpt><trkpt lat="52.0065683965" lon="-1.9848505966"><ele>142.89</ele><time>2011-11-02T11:36:12Z</time></trkpt><trkpt lat="52.0064783748" lon="-1.9847720582"><ele>140.97</ele><time>2011-11-02T11:36:18Z</time></trkpt><trkpt lat="52.0064764470" lon="-1.9847392850"><ele>139.53</ele><time>2011-11-02T11:36:23Z</time></trkpt><trkpt lat="52.0064274967" lon="-1.9846863952"><ele>138.57</ele><time>2011-11-02T11:36:30Z</time></trkpt><trkpt lat="52.0064187795" lon="-1.9846735708"><ele>138.57</ele><time>2011-11-02T11:36:32Z</time></trkpt><trkpt lat="52.0063456055" lon="-1.9846184179"><ele>137.61</ele><time>2011-11-02T11:36:38Z</time></trkpt><trkpt lat="52.0063147601" lon="-1.9845913444"><ele>136.16</ele><time>2011-11-02T11:36:43Z</time></trkpt><trkpt lat="52.0062549133" lon="-1.9845330901"><ele>135.68</ele><time>2011-11-02T11:36:48Z</time></trkpt><trkpt lat="52.0061865170" lon="-1.9845121354"><ele>134.24</ele><time>2011-11-02T11:36:54Z</time></trkpt><trkpt lat="52.0060902089" lon="-1.9844928570"><ele>133.28</ele><time>2011-11-02T11:37:01Z</time></trkpt><trkpt lat="52.0060902089" lon="-1.9844928570"><ele>133.28</ele><time>2011-11-02T11:37:03Z</time></trkpt><trkpt lat="52.0060638897" lon="-1.9844840560"><ele>132.32</ele><time>2011-11-02T11:37:05Z</time></trkpt><trkpt lat="52.0059884526" lon="-1.9844548870"><ele>132.32</ele><time>2011-11-02T11:37:10Z</time></trkpt><trkpt lat="52.0059355628" lon="-1.9844660349"><ele>131.84</ele><time>2011-11-02T11:37:14Z</time></trkpt><trkpt lat="52.0058519952" lon="-1.9844343513"><ele>130.88</ele><time>2011-11-02T11:37:20Z</time></trkpt><trkpt lat="52.0058210660" lon="-1.9844625145"><ele>130.88</ele><time>2011-11-02T11:37:23Z</time></trkpt><trkpt lat="52.0057121851" lon="-1.9844597485"><ele>129.92</ele><time>2011-11-02T11:37:30Z</time></trkpt><trkpt lat="52.0056784898" lon="-1.9844718184"><ele>129.92</ele><time>2011-11-02T11:37:33Z</time></trkpt><trkpt lat="52.0056562778" lon="-1.9844775181"><ele>128.95</ele><time>2011-11-02T11:37:35Z</time></trkpt><trkpt lat="52.0056167152" lon="-1.9844646938"><ele>128.47</ele><time>2011-11-02T11:37:38Z</time></trkpt><trkpt lat="52.0055646636" lon="-1.9844646938"><ele>127.51</ele><time>2011-11-02T11:37:43Z</time></trkpt><trkpt lat="52.0055055711" lon="-1.9844599999"><ele>125.11</ele><time>2011-11-02T11:37:48Z</time></trkpt><trkpt lat="52.0054374263" lon="-1.9844644424"><ele>124.63</ele><time>2011-11-02T11:37:56Z</time></trkpt><trkpt lat="52.0054281224" lon="-1.9844703097"><ele>124.63</ele><time>2011-11-02T11:37:57Z</time></trkpt><trkpt lat="52.0053555351" lon="-1.9844764285"><ele>124.15</ele><time>2011-11-02T11:38:04Z</time></trkpt><trkpt lat="52.0053182356" lon="-1.9844621792"><ele>122.71</ele><time>2011-11-02T11:38:07Z</time></trkpt><trkpt lat="52.0053014718" lon="-1.9844533782"><ele>123.19</ele><time>2011-11-02T11:38:08Z</time></trkpt><trkpt lat="52.0052676927" lon="-1.9844454993"><ele>122.22</ele><time>2011-11-02T11:38:11Z</time></trkpt><trkpt lat="52.0052298903" lon="-1.9844354410"><ele>121.74</ele><time>2011-11-02T11:38:14Z</time></trkpt><trkpt lat="52.0051576383" lon="-1.9844309147"><ele>121.26</ele><time>2011-11-02T11:38:22Z</time></trkpt><trkpt lat="52.0051524416" lon="-1.9844276458"><ele>121.26</ele><time>2011-11-02T11:38:23Z</time></trkpt><trkpt lat="52.0050840452" lon="-1.9843964651"><ele>118.86</ele><time>2011-11-02T11:38:30Z</time></trkpt><trkpt lat="52.0050402079" lon="-1.9843875803"><ele>119.82</ele><time>2011-11-02T11:38:33Z</time></trkpt><trkpt lat="52.0050114579" lon="-1.9843699783"><ele>118.86</ele><time>2011-11-02T11:38:35Z</time></trkpt><trkpt lat="52.0049546286" lon="-1.9843500294"><ele>117.90</ele><time>2011-11-02T11:38:40Z</time></trkpt><trkpt lat="52.0049012359" lon="-1.9843346067"><ele>117.42</ele><time>2011-11-02T11:38:46Z</time></trkpt><trkpt lat="52.0048224460" lon="-1.9842903502"><ele>117.42</ele><time>2011-11-02T11:38:52Z</time></trkpt><trkpt lat="52.0047869068" lon="-1.9842759334"><ele>116.94</ele><time>2011-11-02T11:38:56Z</time></trkpt><trkpt lat="52.0047271438" lon="-1.9842146616"><ele>116.46</ele><time>2011-11-02T11:39:02Z</time></trkpt><trkpt lat="52.0046914369" lon="-1.9842122309"><ele>116.94</ele><time>2011-11-02T11:39:05Z</time></trkpt><trkpt lat="52.0045806281" lon="-1.9841624424"><ele>115.98</ele><time>2011-11-02T11:39:12Z</time></trkpt><trkpt lat="52.0044830628" lon="-1.9840942975"><ele>115.50</ele><time>2011-11-02T11:39:19Z</time></trkpt><trkpt lat="52.0044214558" lon="-1.9840623625"><ele>115.01</ele><time>2011-11-02T11:39:25Z</time></trkpt><trkpt lat="52.0044059493" lon="-1.9840530585"><ele>114.53</ele><time>2011-11-02T11:39:27Z</time></trkpt><trkpt lat="52.0043777861" lon="-1.9840428326"><ele>114.53</ele><time>2011-11-02T11:39:31Z</time></trkpt><trkpt lat="52.0043669734" lon="-1.9840218779"><ele>115.01</ele><time>2011-11-02T11:39:33Z</time></trkpt><trkpt lat="52.0043077972" lon="-1.9839741848"><ele>113.57</ele><time>2011-11-02T11:39:40Z</time></trkpt><trkpt lat="52.0042103156" lon="-1.9839243125"><ele>114.05</ele><time>2011-11-02T11:39:49Z</time></trkpt><trkpt lat="52.0041910373" lon="-1.9839227200"><ele>114.05</ele><time>2011-11-02T11:39:52Z</time></trkpt><trkpt lat="52.0041224733" lon="-1.9838928804"><ele>113.57</ele><time>2011-11-02T11:39:59Z</time></trkpt><trkpt lat="52.0041010156" lon="-1.9838656392"><ele>113.09</ele><time>2011-11-02T11:40:02Z</time></trkpt><trkpt lat="52.0040653925" lon="-1.9838265795"><ele>113.57</ele><time>2011-11-02T11:40:07Z</time></trkpt><trkpt lat="52.0039511472" lon="-1.9837743603"><ele>113.57</ele><time>2011-11-02T11:40:16Z</time></trkpt><trkpt lat="52.0039399154" lon="-1.9837676547"><ele>113.09</ele><time>2011-11-02T11:40:17Z</time></trkpt><trkpt lat="52.0038824994" lon="-1.9837440178"><ele>113.57</ele><time>2011-11-02T11:40:23Z</time></trkpt><trkpt lat="52.0038589463" lon="-1.9837239012"><ele>114.05</ele><time>2011-11-02T11:40:26Z</time></trkpt><trkpt lat="52.0038196351" lon="-1.9837213028"><ele>114.53</ele><time>2011-11-02T11:40:31Z</time></trkpt><trkpt lat="52.0037587825" lon="-1.9836774655"><ele>113.09</ele><time>2011-11-02T11:40:36Z</time></trkpt><trkpt lat="52.0037214831" lon="-1.9836749509"><ele>114.05</ele><time>2011-11-02T11:40:39Z</time></trkpt><trkpt lat="52.0036199782" lon="-1.9836456142"><ele>114.53</ele><time>2011-11-02T11:40:46Z</time></trkpt><trkpt lat="52.0035571977" lon="-1.9836072251"><ele>114.05</ele><time>2011-11-02T11:40:51Z</time></trkpt><trkpt lat="52.0035266876" lon="-1.9835919701"><ele>113.09</ele><time>2011-11-02T11:40:54Z</time></trkpt><trkpt lat="52.0034475625" lon="-1.9835782237"><ele>112.61</ele><time>2011-11-02T11:41:00Z</time></trkpt><trkpt lat="52.0033818483" lon="-1.9835488871"><ele>112.13</ele><time>2011-11-02T11:41:07Z</time></trkpt><trkpt lat="52.0033706166" lon="-1.9835425168"><ele>111.65</ele><time>2011-11-02T11:41:14Z</time></trkpt><trkpt lat="52.0033663418" lon="-1.9835421816"><ele>111.65</ele><time>2011-11-02T11:41:17Z</time></trkpt><trkpt lat="52.0033080876" lon="-1.9835297763"><ele>111.17</ele><time>2011-11-02T11:41:22Z</time></trkpt><trkpt lat="52.0032591373" lon="-1.9835156109"><ele>110.69</ele><time>2011-11-02T11:41:27Z</time></trkpt><trkpt lat="52.0031857956" lon="-1.9834948238"><ele>110.21</ele><time>2011-11-02T11:41:33Z</time></trkpt><trkpt lat="52.0031543635" lon="-1.9835440256"><ele>109.73</ele><time>2011-11-02T11:41:39Z</time></trkpt><trkpt lat="52.0031439699" lon="-1.9835506473"><ele>108.77</ele><time>2011-11-02T11:41:46Z</time></trkpt><trkpt lat="52.0031439699" lon="-1.9835506473"><ele>109.25</ele><time>2011-11-02T11:41:54Z</time></trkpt><trkpt lat="52.0031153876" lon="-1.9835563470"><ele>109.25</ele><time>2011-11-02T11:41:58Z</time></trkpt><trkpt lat="52.0030407049" lon="-1.9835467916"><ele>108.77</ele><time>2011-11-02T11:42:04Z</time></trkpt><trkpt lat="52.0030331612" lon="-1.9835468754"><ele>108.29</ele><time>2011-11-02T11:42:05Z</time></trkpt><trkpt lat="52.0029532816" lon="-1.9835955743"><ele>106.84</ele><time>2011-11-02T11:42:12Z</time></trkpt><trkpt lat="52.0028779283" lon="-1.9836298563"><ele>105.40</ele><time>2011-11-02T11:42:19Z</time></trkpt><trkpt lat="52.0028016530" lon="-1.9836542476"><ele>104.44</ele><time>2011-11-02T11:42:25Z</time></trkpt><trkpt lat="52.0027184207" lon="-1.9837023597"><ele>103.00</ele><time>2011-11-02T11:42:33Z</time></trkpt><trkpt lat="52.0026504435" lon="-1.9837379828"><ele>102.52</ele><time>2011-11-02T11:42:40Z</time></trkpt><trkpt lat="52.0025734138" lon="-1.9837898668"><ele>102.04</ele><time>2011-11-02T11:42:46Z</time></trkpt><trkpt lat="52.0024723280" lon="-1.9838449359"><ele>100.60</ele><time>2011-11-02T11:42:54Z</time></trkpt><trkpt lat="52.0024649519" lon="-1.9838436786"><ele>100.60</ele><time>2011-11-02T11:42:55Z</time></trkpt><trkpt lat="52.0024495292" lon="-1.9838514738"><ele>99.63</ele><time>2011-11-02T11:42:57Z</time></trkpt><trkpt lat="52.0023679733" lon="-1.9839103147"><ele>98.67</ele><time>2011-11-02T11:43:05Z</time></trkpt><trkpt lat="52.0023631118" lon="-1.9839186966"><ele>98.19</ele><time>2011-11-02T11:43:06Z</time></trkpt><trkpt lat="52.0023298357" lon="-1.9839431718"><ele>97.71</ele><time>2011-11-02T11:43:11Z</time></trkpt><trkpt lat="52.0022684801" lon="-1.9839739334"><ele>97.23</ele><time>2011-11-02T11:43:16Z</time></trkpt><trkpt lat="52.0022445079" lon="-1.9839851651"><ele>97.23</ele><time>2011-11-02T11:43:19Z</time></trkpt><trkpt lat="52.0021548215" lon="-1.9840458501"><ele>95.79</ele><time>2011-11-02T11:43:27Z</time></trkpt><trkpt lat="52.0020985790" lon="-1.9840740971"><ele>94.83</ele><time>2011-11-02T11:43:32Z</time></trkpt><trkpt lat="52.0020308532" lon="-1.9841160905"><ele>94.83</ele><time>2011-11-02T11:43:38Z</time></trkpt><trkpt lat="52.0019757003" lon="-1.9841531385"><ele>93.39</ele><time>2011-11-02T11:43:44Z</time></trkpt><trkpt lat="52.0019313600" lon="-1.9841775298"><ele>94.35</ele><time>2011-11-02T11:43:47Z</time></trkpt><trkpt lat="52.0018518157" lon="-1.9842372090"><ele>92.90</ele><time>2011-11-02T11:43:54Z</time></trkpt><trkpt lat="52.0018202998" lon="-1.9842482731"><ele>92.42</ele><time>2011-11-02T11:43:57Z</time></trkpt><trkpt lat="52.0017519034" lon="-1.9842826389"><ele>91.94</ele><time>2011-11-02T11:44:02Z</time></trkpt><trkpt lat="52.0017147716" lon="-1.9843215309"><ele>91.46</ele><time>2011-11-02T11:44:06Z</time></trkpt><trkpt lat="52.0016542543" lon="-1.9843812101"><ele>90.98</ele><time>2011-11-02T11:44:14Z</time></trkpt><trkpt lat="52.0016255043" lon="-1.9843962975"><ele>91.46</ele><time>2011-11-02T11:44:17Z</time></trkpt><trkpt lat="52.0016011968" lon="-1.9844029192"><ele>90.98</ele><time>2011-11-02T11:44:20Z</time></trkpt><trkpt lat="52.0015221555" lon="-1.9844180904"><ele>89.54</ele><time>2011-11-02T11:44:28Z</time></trkpt><trkpt lat="52.0014800783" lon="-1.9844387937"><ele>89.54</ele><time>2011-11-02T11:44:33Z</time></trkpt><trkpt lat="52.0014089160" lon="-1.9844541326"><ele>89.54</ele><time>2011-11-02T11:44:39Z</time></trkpt><trkpt lat="52.0013305452" lon="-1.9844728243"><ele>88.58</ele><time>2011-11-02T11:44:47Z</time></trkpt><trkpt lat="52.0012459718" lon="-1.9844786078"><ele>88.10</ele><time>2011-11-02T11:44:54Z</time></trkpt><trkpt lat="52.0012346562" lon="-1.9844784401"><ele>88.10</ele><time>2011-11-02T11:44:55Z</time></trkpt><trkpt lat="52.0011353306" lon="-1.9845125545"><ele>87.62</ele><time>2011-11-02T11:45:02Z</time></trkpt><trkpt lat="52.0011249371" lon="-1.9845155720"><ele>88.10</ele><time>2011-11-02T11:45:03Z</time></trkpt><trkpt lat="52.0010255277" lon="-1.9845476747"><ele>88.10</ele><time>2011-11-02T11:45:11Z</time></trkpt><trkpt lat="52.0009956043" lon="-1.9845430646"><ele>87.62</ele><time>2011-11-02T11:45:15Z</time></trkpt><trkpt lat="52.0009314828" lon="-1.9845482614"><ele>88.10</ele><time>2011-11-02T11:45:21Z</time></trkpt><trkpt lat="52.0008435566" lon="-1.9845568109"><ele>87.14</ele><time>2011-11-02T11:45:28Z</time></trkpt><trkpt lat="52.0007573906" lon="-1.9845646061"><ele>86.18</ele><time>2011-11-02T11:45:35Z</time></trkpt><trkpt lat="52.0006709732" lon="-1.9846042525"><ele>85.69</ele><time>2011-11-02T11:45:42Z</time></trkpt><trkpt lat="52.0006184187" lon="-1.9846221898"><ele>85.21</ele><time>2011-11-02T11:45:48Z</time></trkpt><trkpt lat="52.0005832985" lon="-1.9846192561"><ele>85.21</ele><time>2011-11-02T11:45:53Z</time></trkpt><trkpt lat="52.0005053468" lon="-1.9846470002"><ele>84.73</ele><time>2011-11-02T11:46:01Z</time></trkpt><trkpt lat="52.0004508644" lon="-1.9846640993"><ele>84.73</ele><time>2011-11-02T11:46:06Z</time></trkpt><trkpt lat="52.0003685541" lon="-1.9846948609"><ele>84.73</ele><time>2011-11-02T11:46:13Z</time></trkpt><trkpt lat="52.0003238786" lon="-1.9847434759"><ele>83.77</ele><time>2011-11-02T11:46:17Z</time></trkpt><trkpt lat="52.0002237987" lon="-1.9848031551"><ele>83.77</ele><time>2011-11-02T11:46:26Z</time></trkpt><trkpt lat="52.0001982339" lon="-1.9848169852"><ele>82.81</ele><time>2011-11-02T11:46:30Z</time></trkpt><trkpt lat="52.0001223776" lon="-1.9848723896"><ele>83.29</ele><time>2011-11-02T11:46:38Z</time></trkpt><trkpt lat="52.0001123194" lon="-1.9848736469"><ele>82.81</ele><time>2011-11-02T11:46:39Z</time></trkpt><trkpt lat="52.0000243094" lon="-1.9849385228"><ele>83.77</ele><time>2011-11-02T11:46:46Z</time></trkpt><trkpt lat="52.0000132453" lon="-1.9849526044"><ele>83.29</ele><time>2011-11-02T11:46:48Z</time></trkpt><trkpt lat="51.9999533147" lon="-1.9849833660"><ele>82.33</ele><time>2011-11-02T11:46:53Z</time></trkpt><trkpt lat="51.9999031071" lon="-1.9850057457"><ele>81.85</ele><time>2011-11-02T11:46:57Z</time></trkpt><trkpt lat="51.9998269994" lon="-1.9850541092"><ele>81.85</ele><time>2011-11-02T11:47:05Z</time></trkpt><trkpt lat="51.9998139236" lon="-1.9850615691"><ele>81.37</ele><time>2011-11-02T11:47:07Z</time></trkpt><trkpt lat="51.9997525681" lon="-1.9851103518"><ele>79.93</ele><time>2011-11-02T11:47:14Z</time></trkpt><trkpt lat="51.9997238182" lon="-1.9851480704"><ele>79.45</ele><time>2011-11-02T11:47:22Z</time></trkpt><trkpt lat="51.9997238182" lon="-1.9851480704"><ele>79.93</ele><time>2011-11-02T11:47:34Z</time></trkpt><trkpt lat="51.9997238182" lon="-1.9851480704"><ele>79.93</ele><time>2011-11-02T11:47:47Z</time></trkpt><trkpt lat="51.9997238182" lon="-1.9851480704"><ele>79.93</ele><time>2011-11-02T11:47:59Z</time></trkpt><trkpt lat="51.9997227285" lon="-1.9851510040"><ele>79.93</ele><time>2011-11-02T11:48:07Z</time></trkpt><trkpt lat="51.9997227285" lon="-1.9851510040"><ele>79.93</ele><time>2011-11-02T11:48:18Z</time></trkpt><trkpt lat="51.9997123349" lon="-1.9851774909"><ele>79.45</ele><time>2011-11-02T11:48:25Z</time></trkpt><trkpt lat="51.9997068867" lon="-1.9851823524"><ele>79.45</ele><time>2011-11-02T11:48:33Z</time></trkpt><trkpt lat="51.9997068867" lon="-1.9851823524"><ele>79.45</ele><time>2011-11-02T11:48:47Z</time></trkpt><trkpt lat="51.9997068867" lon="-1.9851823524"><ele>79.45</ele><time>2011-11-02T11:49:02Z</time></trkpt><trkpt lat="51.9997067191" lon="-1.9851811789"><ele>79.93</ele><time>2011-11-02T11:49:14Z</time></trkpt><trkpt lat="51.9997056294" lon="-1.9851838611"><ele>79.93</ele><time>2011-11-02T11:49:24Z</time></trkpt><trkpt lat="51.9997056294" lon="-1.9851838611"><ele>79.93</ele><time>2011-11-02T11:49:41Z</time></trkpt><trkpt lat="51.9996981695" lon="-1.9852095097"><ele>79.45</ele><time>2011-11-02T11:49:48Z</time></trkpt><trkpt lat="51.9996631332" lon="-1.9852842763"><ele>79.93</ele><time>2011-11-02T11:49:54Z</time></trkpt><trkpt lat="51.9996467885" lon="-1.9853072427"><ele>79.45</ele><time>2011-11-02T11:49:56Z</time></trkpt><trkpt lat="51.9996133447" lon="-1.9853544328"><ele>79.45</ele><time>2011-11-02T11:50:00Z</time></trkpt><trkpt lat="51.9995962456" lon="-1.9853905588"><ele>79.45</ele><time>2011-11-02T11:50:03Z</time></trkpt><trkpt lat="51.9995799009" lon="-1.9854247570"><ele>78.97</ele><time>2011-11-02T11:50:06Z</time></trkpt><trkpt lat="51.9995591976" lon="-1.9854750484"><ele>78.48</ele><time>2011-11-02T11:50:09Z</time></trkpt><trkpt lat="51.9995084871" lon="-1.9855585322"><ele>78.48</ele><time>2011-11-02T11:50:15Z</time></trkpt><trkpt lat="51.9995084871" lon="-1.9855585322"><ele>78.48</ele><time>2011-11-02T11:50:16Z</time></trkpt><trkpt lat="51.9994626381" lon="-1.9856272638"><ele>78.00</ele><time>2011-11-02T11:50:23Z</time></trkpt><trkpt lat="51.9994177110" lon="-1.9856947381"><ele>77.52</ele><time>2011-11-02T11:50:28Z</time></trkpt><trkpt lat="51.9994009472" lon="-1.9857181236"><ele>77.52</ele><time>2011-11-02T11:50:30Z</time></trkpt><trkpt lat="51.9993454590" lon="-1.9858202152"><ele>77.52</ele><time>2011-11-02T11:50:36Z</time></trkpt><trkpt lat="51.9993398432" lon="-1.9858263340"><ele>76.56</ele><time>2011-11-02T11:50:37Z</time></trkpt><trkpt lat="51.9993043877" lon="-1.9858985860"><ele>76.56</ele><time>2011-11-02T11:50:42Z</time></trkpt><trkpt lat="51.9992654119" lon="-1.9859540742"><ele>76.56</ele><time>2011-11-02T11:50:47Z</time></trkpt><trkpt lat="51.9992173836" lon="-1.9860373903"><ele>76.56</ele><time>2011-11-02T11:50:53Z</time></trkpt><trkpt lat="51.9992136955" lon="-1.9860503823"><ele>76.08</ele><time>2011-11-02T11:50:54Z</time></trkpt><trkpt lat="51.9991497416" lon="-1.9861493725"><ele>76.08</ele><time>2011-11-02T11:51:00Z</time></trkpt><trkpt lat="51.9991459697" lon="-1.9861577544"><ele>75.60</ele><time>2011-11-02T11:51:01Z</time></trkpt><trkpt lat="51.9991079997" lon="-1.9862240553"><ele>75.12</ele><time>2011-11-02T11:51:06Z</time></trkpt><trkpt lat="51.9990753103" lon="-1.9862931222"><ele>75.60</ele><time>2011-11-02T11:51:12Z</time></trkpt><trkpt lat="51.9990737177" lon="-1.9863054436"><ele>75.60</ele><time>2011-11-02T11:51:13Z</time></trkpt><trkpt lat="51.9990626536" lon="-1.9863379654"><ele>75.12</ele><time>2011-11-02T11:51:15Z</time></trkpt><trkpt lat="51.9990256056" lon="-1.9864349440"><ele>75.60</ele><time>2011-11-02T11:51:20Z</time></trkpt><trkpt lat="51.9989886414" lon="-1.9865174219"><ele>75.12</ele><time>2011-11-02T11:51:26Z</time></trkpt><trkpt lat="51.9989797566" lon="-1.9865484349"><ele>74.64</ele><time>2011-11-02T11:51:28Z</time></trkpt><trkpt lat="51.9989460614" lon="-1.9866273925"><ele>74.16</ele><time>2011-11-02T11:51:34Z</time></trkpt><trkpt lat="51.9989390206" lon="-1.9866433181"><ele>73.68</ele><time>2011-11-02T11:51:35Z</time></trkpt><trkpt lat="51.9988857117" lon="-1.9867290650"><ele>74.16</ele><time>2011-11-02T11:51:40Z</time></trkpt><trkpt lat="51.9988744799" lon="-1.9867517799"><ele>73.68</ele><time>2011-11-02T11:51:42Z</time></trkpt><trkpt lat="51.9988539442" lon="-1.9867890794"><ele>73.68</ele><time>2011-11-02T11:51:45Z</time></trkpt><trkpt lat="51.9988287985" lon="-1.9868210983"><ele>73.68</ele><time>2011-11-02T11:51:52Z</time></trkpt><trkpt lat="51.9988287985" lon="-1.9868210983"><ele>74.16</ele><time>2011-11-02T11:52:06Z</time></trkpt><trkpt lat="51.9988287985" lon="-1.9868210983"><ele>73.68</ele><time>2011-11-02T11:52:19Z</time></trkpt><trkpt lat="51.9988271222" lon="-1.9868204277"><ele>73.20</ele><time>2011-11-02T11:52:31Z</time></trkpt><trkpt lat="51.9988216739" lon="-1.9868164044"><ele>75.12</ele><time>2011-11-02T11:52:39Z</time></trkpt><trkpt lat="51.9988216739" lon="-1.9868164044"><ele>73.68</ele><time>2011-11-02T11:52:50Z</time></trkpt><trkpt lat="51.9988216739" lon="-1.9868164044"><ele>73.68</ele><time>2011-11-02T11:53:02Z</time></trkpt><trkpt lat="51.9988209195" lon="-1.9868162367"><ele>74.64</ele><time>2011-11-02T11:53:17Z</time></trkpt><trkpt lat="51.9988209195" lon="-1.9868162367"><ele>74.16</ele><time>2011-11-02T11:53:27Z</time></trkpt><trkpt lat="51.9988162257" lon="-1.9868247025"><ele>69.35</ele><time>2011-11-02T11:53:32Z</time></trkpt><trkpt lat="51.9988168962" lon="-1.9868313242"><ele>77.04</ele><time>2011-11-02T11:53:33Z</time></trkpt><trkpt lat="51.9988132920" lon="-1.9868309889"><ele>71.76</ele><time>2011-11-02T11:53:35Z</time></trkpt><trkpt lat="51.9988039043" lon="-1.9868431427"><ele>75.12</ele><time>2011-11-02T11:53:36Z</time></trkpt><trkpt lat="51.9987850450" lon="-1.9869039953"><ele>74.16</ele><time>2011-11-02T11:53:40Z</time></trkpt><trkpt lat="51.9987660181" lon="-1.9869366847"><ele>73.20</ele><time>2011-11-02T11:53:42Z</time></trkpt><trkpt lat="51.9987490866" lon="-1.9869877305"><ele>73.68</ele><time>2011-11-02T11:53:47Z</time></trkpt><trkpt lat="51.9987042435" lon="-1.9870648440"><ele>73.68</ele><time>2011-11-02T11:53:54Z</time></trkpt><trkpt lat="51.9987008907" lon="-1.9870716333"><ele>73.68</ele><time>2011-11-02T11:53:55Z</time></trkpt><trkpt lat="51.9986573048" lon="-1.9871811848"><ele>72.72</ele><time>2011-11-02T11:54:03Z</time></trkpt><trkpt lat="51.9986165687" lon="-1.9872579630"><ele>73.20</ele><time>2011-11-02T11:54:09Z</time></trkpt><trkpt lat="51.9985749107" lon="-1.9873471465"><ele>72.72</ele><time>2011-11-02T11:54:15Z</time></trkpt><trkpt lat="51.9985438976" lon="-1.9874245115"><ele>72.24</ele><time>2011-11-02T11:54:21Z</time></trkpt><trkpt lat="51.9985168241" lon="-1.9874841068"><ele>71.76</ele><time>2011-11-02T11:54:27Z</time></trkpt><trkpt lat="51.9985081907" lon="-1.9875085820"><ele>71.27</ele><time>2011-11-02T11:54:28Z</time></trkpt><trkpt lat="51.9984770939" lon="-1.9875889644"><ele>71.76</ele><time>2011-11-02T11:54:33Z</time></trkpt><trkpt lat="51.9984712265" lon="-1.9875990227"><ele>72.24</ele><time>2011-11-02T11:54:34Z</time></trkpt><trkpt lat="51.9984383695" lon="-1.9876720291"><ele>71.76</ele><time>2011-11-02T11:54:40Z</time></trkpt><trkpt lat="51.9984102063" lon="-1.9877394196"><ele>72.24</ele><time>2011-11-02T11:54:45Z</time></trkpt><trkpt lat="51.9984003156" lon="-1.9877686724"><ele>71.27</ele><time>2011-11-02T11:54:47Z</time></trkpt><trkpt lat="51.9983576518" lon="-1.9878797326"><ele>71.27</ele><time>2011-11-02T11:54:54Z</time></trkpt><trkpt lat="51.9983520359" lon="-1.9878912997"><ele>71.27</ele><time>2011-11-02T11:54:55Z</time></trkpt><trkpt lat="51.9983122218" lon="-1.9879680779"><ele>70.79</ele><time>2011-11-02T11:55:00Z</time></trkpt><trkpt lat="51.9983076956" lon="-1.9879772980"><ele>70.79</ele><time>2011-11-02T11:55:01Z</time></trkpt><trkpt lat="51.9982709829" lon="-1.9880499691"><ele>71.76</ele><time>2011-11-02T11:55:06Z</time></trkpt><trkpt lat="51.9982613437" lon="-1.9880781323"><ele>70.79</ele><time>2011-11-02T11:55:09Z</time></trkpt><trkpt lat="51.9982265588" lon="-1.9881609455"><ele>70.31</ele><time>2011-11-02T11:55:15Z</time></trkpt><trkpt lat="51.9981866609" lon="-1.9882585946"><ele>70.79</ele><time>2011-11-02T11:55:21Z</time></trkpt><trkpt lat="51.9981724117" lon="-1.9882830698"><ele>70.31</ele><time>2011-11-02T11:55:23Z</time></trkpt><trkpt lat="51.9981247187" lon="-1.9883853290"><ele>69.83</ele><time>2011-11-02T11:55:29Z</time></trkpt><trkpt lat="51.9981171750" lon="-1.9884056132"><ele>70.79</ele><time>2011-11-02T11:55:31Z</time></trkpt><trkpt lat="51.9980725832" lon="-1.9885012507"><ele>69.35</ele><time>2011-11-02T11:55:37Z</time></trkpt><trkpt lat="51.9980583340" lon="-1.9885239657"><ele>69.83</ele><time>2011-11-02T11:55:39Z</time></trkpt><trkpt lat="51.9980327692" lon="-1.9885798730"><ele>69.35</ele><time>2011-11-02T11:55:45Z</time></trkpt><trkpt lat="51.9980013371" lon="-1.9886430725"><ele>69.35</ele><time>2011-11-02T11:55:49Z</time></trkpt><trkpt lat="51.9979903568" lon="-1.9886732474"><ele>68.87</ele><time>2011-11-02T11:55:51Z</time></trkpt><trkpt lat="51.9979600143" lon="-1.9887618441"><ele>69.35</ele><time>2011-11-02T11:55:56Z</time></trkpt><trkpt lat="51.9979494531" lon="-1.9887874089"><ele>68.87</ele><time>2011-11-02T11:55:58Z</time></trkpt><trkpt lat="51.9979129918" lon="-1.9888622593"><ele>68.87</ele><time>2011-11-02T11:56:04Z</time></trkpt><trkpt lat="51.9979098067" lon="-1.9888714794"><ele>69.35</ele><time>2011-11-02T11:56:05Z</time></trkpt><trkpt lat="51.9978810567" lon="-1.9889441505"><ele>68.39</ele><time>2011-11-02T11:56:11Z</time></trkpt><trkpt lat="51.9978285860" lon="-1.9890480023"><ele>67.91</ele><time>2011-11-02T11:56:17Z</time></trkpt><trkpt lat="51.9977858383" lon="-1.9891537819"><ele>68.39</ele><time>2011-11-02T11:56:24Z</time></trkpt><trkpt lat="51.9977402408" lon="-1.9892509282"><ele>67.91</ele><time>2011-11-02T11:56:30Z</time></trkpt><trkpt lat="51.9977324456" lon="-1.9892749842"><ele>67.43</ele><time>2011-11-02T11:56:33Z</time></trkpt><trkpt lat="51.9976972416" lon="-1.9893575460"><ele>67.43</ele><time>2011-11-02T11:56:39Z</time></trkpt><trkpt lat="51.9976586848" lon="-1.9894587155"><ele>67.91</ele><time>2011-11-02T11:56:45Z</time></trkpt><trkpt lat="51.9975919649" lon="-1.9896002859"><ele>67.91</ele><time>2011-11-02T11:56:55Z</time></trkpt><trkpt lat="51.9975307770" lon="-1.9897179678"><ele>67.91</ele><time>2011-11-02T11:57:05Z</time></trkpt><trkpt lat="51.9974721875" lon="-1.9898384158"><ele>66.95</ele><time>2011-11-02T11:57:15Z</time></trkpt><trkpt lat="51.9974593632" lon="-1.9898773916"><ele>67.91</ele><time>2011-11-02T11:57:18Z</time></trkpt><trkpt lat="51.9974192977" lon="-1.9899757951"><ele>67.43</ele><time>2011-11-02T11:57:26Z</time></trkpt><trkpt lat="51.9973738678" lon="-1.9900853466"><ele>66.47</ele><time>2011-11-02T11:57:34Z</time></trkpt><trkpt lat="51.9973122608" lon="-1.9902051240"><ele>66.95</ele><time>2011-11-02T11:57:43Z</time></trkpt><trkpt lat="51.9972696807" lon="-1.9903136697"><ele>65.03</ele><time>2011-11-02T11:57:52Z</time></trkpt><trkpt lat="51.9972399250" lon="-1.9903917890"><ele>65.99</ele><time>2011-11-02T11:57:58Z</time></trkpt><trkpt lat="51.9972172938" lon="-1.9904323574"><ele>65.03</ele><time>2011-11-02T11:58:01Z</time></trkpt><trkpt lat="51.9971791562" lon="-1.9905227143"><ele>61.66</ele><time>2011-11-02T11:58:07Z</time></trkpt><trkpt lat="51.9971731212" lon="-1.9905418251"><ele>61.18</ele><time>2011-11-02T11:58:08Z</time></trkpt><trkpt lat="51.9971673377" lon="-1.9905601814"><ele>69.35</ele><time>2011-11-02T11:58:09Z</time></trkpt><trkpt lat="51.9971607160" lon="-1.9905818067"><ele>64.07</ele><time>2011-11-02T11:58:10Z</time></trkpt><trkpt lat="51.9971442036" lon="-1.9906196091"><ele>63.10</ele><time>2011-11-02T11:58:15Z</time></trkpt><trkpt lat="51.9971274398" lon="-1.9906618539"><ele>63.58</ele><time>2011-11-02T11:58:21Z</time></trkpt><trkpt lat="51.9971115142" lon="-1.9907154143"><ele>62.62</ele><time>2011-11-02T11:58:27Z</time></trkpt><trkpt lat="51.9970787410" lon="-1.9908031728"><ele>62.14</ele><time>2011-11-02T11:58:33Z</time></trkpt><trkpt lat="51.9970381726" lon="-1.9908843935"><ele>62.62</ele><time>2011-11-02T11:58:39Z</time></trkpt><trkpt lat="51.9970322214" lon="-1.9909066893"><ele>62.14</ele><time>2011-11-02T11:58:41Z</time></trkpt><trkpt lat="51.9970136136" lon="-1.9909568969"><ele>62.14</ele><time>2011-11-02T11:58:48Z</time></trkpt><trkpt lat="51.9970027171" lon="-1.9909679610"><ele>62.14</ele><time>2011-11-02T11:58:54Z</time></trkpt><trkpt lat="51.9970027171" lon="-1.9909679610"><ele>63.10</ele><time>2011-11-02T11:59:01Z</time></trkpt><trkpt lat="51.9969914854" lon="-1.9910198450"><ele>62.62</ele><time>2011-11-02T11:59:07Z</time></trkpt><trkpt lat="51.9969789963" lon="-1.9910423923"><ele>62.62</ele><time>2011-11-02T11:59:15Z</time></trkpt><trkpt lat="51.9969789963" lon="-1.9910423923"><ele>61.66</ele><time>2011-11-02T11:59:28Z</time></trkpt><trkpt lat="51.9969633222" lon="-1.9910856429"><ele>61.66</ele><time>2011-11-02T11:59:36Z</time></trkpt><trkpt lat="51.9969610590" lon="-1.9910924323"><ele>62.14</ele><time>2011-11-02T11:59:51Z</time></trkpt><trkpt lat="51.9969257712" lon="-1.9912384450"><ele>62.14</ele><time>2011-11-02T11:59:57Z</time></trkpt><trkpt lat="51.9969302975" lon="-1.9912562985"><ele>61.66</ele><time>2011-11-02T12:00:00Z</time></trkpt><trkpt lat="51.9969432894" lon="-1.9913258683"><ele>62.14</ele><time>2011-11-02T12:00:04Z</time></trkpt><trkpt lat="51.9969735481" lon="-1.9914111122"><ele>62.62</ele><time>2011-11-02T12:00:09Z</time></trkpt><trkpt lat="51.9969803374" lon="-1.9914475735"><ele>62.62</ele><time>2011-11-02T12:00:11Z</time></trkpt><trkpt lat="51.9970164634" lon="-1.9915293809"><ele>62.62</ele><time>2011-11-02T12:00:16Z</time></trkpt><trkpt lat="51.9970165472" lon="-1.9915663451"><ele>62.62</ele><time>2011-11-02T12:00:19Z</time></trkpt><trkpt lat="51.9970414415" lon="-1.9916815963"><ele>62.62</ele><time>2011-11-02T12:00:25Z</time></trkpt><trkpt lat="51.9970453810" lon="-1.9917511661"><ele>63.10</ele><time>2011-11-02T12:00:29Z</time></trkpt><trkpt lat="51.9970448781" lon="-1.9918584544"><ele>63.58</ele><time>2011-11-02T12:00:35Z</time></trkpt><trkpt lat="51.9970532600" lon="-1.9919262640"><ele>63.58</ele><time>2011-11-02T12:00:39Z</time></trkpt><trkpt lat="51.9970760588" lon="-1.9920637272"><ele>64.07</ele><time>2011-11-02T12:00:46Z</time></trkpt><trkpt lat="51.9970841054" lon="-1.9921395835"><ele>64.07</ele><time>2011-11-02T12:00:51Z</time></trkpt><trkpt lat="51.9970994443" lon="-1.9922372326"><ele>64.55</ele><time>2011-11-02T12:00:57Z</time></trkpt><trkpt lat="51.9971229136" lon="-1.9923125859"><ele>65.03</ele><time>2011-11-02T12:01:02Z</time></trkpt><trkpt lat="51.9971349835" lon="-1.9923750311"><ele>65.03</ele><time>2011-11-02T12:01:06Z</time></trkpt><trkpt lat="51.9971498195" lon="-1.9924673159"><ele>65.03</ele><time>2011-11-02T12:01:12Z</time></trkpt><trkpt lat="51.9971693493" lon="-1.9925580081"><ele>65.99</ele><time>2011-11-02T12:01:18Z</time></trkpt><trkpt lat="51.9971830957" lon="-1.9926560763"><ele>65.03</ele><time>2011-11-02T12:01:24Z</time></trkpt><trkpt lat="51.9972013682" lon="-1.9927535579"><ele>65.99</ele><time>2011-11-02T12:01:31Z</time></trkpt><trkpt lat="51.9972284418" lon="-1.9928196073"><ele>65.51</ele><time>2011-11-02T12:01:36Z</time></trkpt><trkpt lat="51.9972306211" lon="-1.9928846508"><ele>65.99</ele><time>2011-11-02T12:01:40Z</time></trkpt><trkpt lat="51.9972408470" lon="-1.9930056855"><ele>67.91</ele><time>2011-11-02T12:01:48Z</time></trkpt><trkpt lat="51.9972459599" lon="-1.9930318370"><ele>66.47</ele><time>2011-11-02T12:01:50Z</time></trkpt><trkpt lat="51.9972631428" lon="-1.9931469206"><ele>67.43</ele><time>2011-11-02T12:01:56Z</time></trkpt><trkpt lat="51.9972900487" lon="-1.9932198431"><ele>67.43</ele><time>2011-11-02T12:02:01Z</time></trkpt><trkpt lat="51.9972979277" lon="-1.9933253713"><ele>67.43</ele><time>2011-11-02T12:02:07Z</time></trkpt><trkpt lat="51.9973055553" lon="-1.9934056699"><ele>67.43</ele><time>2011-11-02T12:02:12Z</time></trkpt><trkpt lat="51.9973235764" lon="-1.9935055822"><ele>68.39</ele><time>2011-11-02T12:02:18Z</time></trkpt><trkpt lat="51.9973275159" lon="-1.9935629983"><ele>68.87</ele><time>2011-11-02T12:02:22Z</time></trkpt><trkpt lat="51.9973543379" lon="-1.9936631620"><ele>68.87</ele><time>2011-11-02T12:02:28Z</time></trkpt><trkpt lat="51.9973859377" lon="-1.9937421195"><ele>68.39</ele><time>2011-11-02T12:02:33Z</time></trkpt><trkpt lat="51.9973928109" lon="-1.9937548600"><ele>68.39</ele><time>2011-11-02T12:02:34Z</time></trkpt><trkpt lat="51.9974295236" lon="-1.9938795827"><ele>68.39</ele><time>2011-11-02T12:02:42Z</time></trkpt><trkpt lat="51.9974545855" lon="-1.9939426146"><ele>68.39</ele><time>2011-11-02T12:02:47Z</time></trkpt><trkpt lat="51.9974770490" lon="-1.9940365758"><ele>68.87</ele><time>2011-11-02T12:02:53Z</time></trkpt><trkpt lat="51.9975184556" lon="-1.9941186346"><ele>68.39</ele><time>2011-11-02T12:02:59Z</time></trkpt><trkpt lat="51.9975248259" lon="-1.9941350631"><ele>68.39</ele><time>2011-11-02T12:03:00Z</time></trkpt><trkpt lat="51.9975711778" lon="-1.9942283537"><ele>68.39</ele><time>2011-11-02T12:03:06Z</time></trkpt><trkpt lat="51.9975912943" lon="-1.9942924753"><ele>68.87</ele><time>2011-11-02T12:03:11Z</time></trkpt><trkpt lat="51.9976333715" lon="-1.9943964947"><ele>68.39</ele><time>2011-11-02T12:03:18Z</time></trkpt><trkpt lat="51.9976591039" lon="-1.9944781344"><ele>68.87</ele><time>2011-11-02T12:03:24Z</time></trkpt><trkpt lat="51.9977042824" lon="-1.9945726823"><ele>67.91</ele><time>2011-11-02T12:03:30Z</time></trkpt><trkpt lat="51.9977399893" lon="-1.9946590997"><ele>69.35</ele><time>2011-11-02T12:03:36Z</time></trkpt><trkpt lat="51.9977538195" lon="-1.9946819823"><ele>68.39</ele><time>2011-11-02T12:03:38Z</time></trkpt><trkpt lat="51.9977732655" lon="-1.9947564974"><ele>69.83</ele><time>2011-11-02T12:03:43Z</time></trkpt><trkpt lat="51.9978112355" lon="-1.9948467705"><ele>69.83</ele><time>2011-11-02T12:03:48Z</time></trkpt><trkpt lat="51.9978431705" lon="-1.9949048571"><ele>68.87</ele><time>2011-11-02T12:03:52Z</time></trkpt><trkpt lat="51.9978637900" lon="-1.9949351158"><ele>68.87</ele><time>2011-11-02T12:03:55Z</time></trkpt><trkpt lat="51.9979042746" lon="-1.9949920289"><ele>69.83</ele><time>2011-11-02T12:04:01Z</time></trkpt><trkpt lat="51.9979117345" lon="-1.9949990697"><ele>69.83</ele><time>2011-11-02T12:04:02Z</time></trkpt><trkpt lat="51.9979668874" lon="-1.9950981438"><ele>69.35</ele><time>2011-11-02T12:04:09Z</time></trkpt><trkpt lat="51.9979899377" lon="-1.9951696415"><ele>69.35</ele><time>2011-11-02T12:04:14Z</time></trkpt><trkpt lat="51.9980351161" lon="-1.9952617586"><ele>68.39</ele><time>2011-11-02T12:04:20Z</time></trkpt><trkpt lat="51.9980792049" lon="-1.9953433983"><ele>68.39</ele><time>2011-11-02T12:04:26Z</time></trkpt><trkpt lat="51.9981119782" lon="-1.9954399578"><ele>68.39</ele><time>2011-11-02T12:04:32Z</time></trkpt><trkpt lat="51.9981159177" lon="-1.9954573922"><ele>68.39</ele><time>2011-11-02T12:04:35Z</time></trkpt><trkpt lat="51.9981595036" lon="-1.9955772534"><ele>67.91</ele><time>2011-11-02T12:04:42Z</time></trkpt><trkpt lat="51.9981957972" lon="-1.9956654310"><ele>68.39</ele><time>2011-11-02T12:04:47Z</time></trkpt><trkpt lat="51.9982320070" lon="-1.9957853761"><ele>67.91</ele><time>2011-11-02T12:04:53Z</time></trkpt><trkpt lat="51.9982387125" lon="-1.9958223403"><ele>67.43</ele><time>2011-11-02T12:04:57Z</time></trkpt><trkpt lat="51.9982626848" lon="-1.9958965201"><ele>67.43</ele><time>2011-11-02T12:05:02Z</time></trkpt><trkpt lat="51.9982620981" lon="-1.9960039761"><ele>67.91</ele><time>2011-11-02T12:05:07Z</time></trkpt><trkpt lat="51.9982583262" lon="-1.9960509986"><ele>67.43</ele><time>2011-11-02T12:05:11Z</time></trkpt><trkpt lat="51.9982898422" lon="-1.9961390086"><ele>67.43</ele><time>2011-11-02T12:05:17Z</time></trkpt><trkpt lat="51.9983132277" lon="-1.9962485600"><ele>67.43</ele><time>2011-11-02T12:05:22Z</time></trkpt><trkpt lat="51.9983247109" lon="-1.9962825067"><ele>65.99</ele><time>2011-11-02T12:05:25Z</time></trkpt><trkpt lat="51.9983532093" lon="-1.9964237418"><ele>65.99</ele><time>2011-11-02T12:05:32Z</time></trkpt><trkpt lat="51.9983843062" lon="-1.9965627138"><ele>65.03</ele><time>2011-11-02T12:05:41Z</time></trkpt><trkpt lat="51.9984066021" lon="-1.9966845028"><ele>64.55</ele><time>2011-11-02T12:05:48Z</time></trkpt><trkpt lat="51.9984193426" lon="-1.9967238139"><ele>64.55</ele><time>2011-11-02T12:05:50Z</time></trkpt><trkpt lat="51.9984314963" lon="-1.9967713393"><ele>64.55</ele><time>2011-11-02T12:05:52Z</time></trkpt><trkpt lat="51.9984439015" lon="-1.9968607742"><ele>64.07</ele><time>2011-11-02T12:05:57Z</time></trkpt><trkpt lat="51.9984433148" lon="-1.9968757778"><ele>64.07</ele><time>2011-11-02T12:05:58Z</time></trkpt><trkpt lat="51.9984271377" lon="-1.9969882630"><ele>63.58</ele><time>2011-11-02T12:06:03Z</time></trkpt><trkpt lat="51.9984271377" lon="-1.9969882630"><ele>64.07</ele><time>2011-11-02T12:06:04Z</time></trkpt><trkpt lat="51.9983863179" lon="-1.9971155841"><ele>64.07</ele><time>2011-11-02T12:06:10Z</time></trkpt><trkpt lat="51.9983663689" lon="-1.9971882552"><ele>63.58</ele><time>2011-11-02T12:06:15Z</time></trkpt><trkpt lat="51.9983591605" lon="-1.9972245488"><ele>63.10</ele><time>2011-11-02T12:06:18Z</time></trkpt><trkpt lat="51.9983075280" lon="-1.9973043445"><ele>63.58</ele><time>2011-11-02T12:06:24Z</time></trkpt><trkpt lat="51.9982437417" lon="-1.9974109624"><ele>64.07</ele><time>2011-11-02T12:06:33Z</time></trkpt><trkpt lat="51.9982231222" lon="-1.9974581525"><ele>63.58</ele><time>2011-11-02T12:06:38Z</time></trkpt><trkpt lat="51.9981955457" lon="-1.9975080248"><ele>63.10</ele><time>2011-11-02T12:06:43Z</time></trkpt><trkpt lat="51.9981881697" lon="-1.9975632615"><ele>63.10</ele><time>2011-11-02T12:06:51Z</time></trkpt><trkpt lat="51.9981786981" lon="-1.9976004772"><ele>63.10</ele><time>2011-11-02T12:07:00Z</time></trkpt><trkpt lat="51.9981753454" lon="-1.9976101164"><ele>63.10</ele><time>2011-11-02T12:07:16Z</time></trkpt><trkpt lat="51.9981591683" lon="-1.9976695441"><ele>63.58</ele><time>2011-11-02T12:07:21Z</time></trkpt><trkpt lat="51.9981566537" lon="-1.9977026526"><ele>63.10</ele><time>2011-11-02T12:07:28Z</time></trkpt><trkpt lat="51.9981569052" lon="-1.9977065921"><ele>62.62</ele><time>2011-11-02T12:07:38Z</time></trkpt><trkpt lat="51.9981574081" lon="-1.9977186620"><ele>63.10</ele><time>2011-11-02T12:07:53Z</time></trkpt><trkpt lat="51.9981574081" lon="-1.9977186620"><ele>63.10</ele><time>2011-11-02T12:07:55Z</time></trkpt><trkpt lat="51.9981395546" lon="-1.9977413770"><ele>63.10</ele><time>2011-11-02T12:07:59Z</time></trkpt><trkpt lat="51.9981458411" lon="-1.9978465699"><ele>63.10</ele><time>2011-11-02T12:08:05Z</time></trkpt><trkpt lat="51.9981315918" lon="-1.9979039859"><ele>62.62</ele><time>2011-11-02T12:08:09Z</time></trkpt><trkpt lat="51.9981238805" lon="-1.9979948457"><ele>63.10</ele><time>2011-11-02T12:08:15Z</time></trkpt><trkpt lat="51.9981325138" lon="-1.9980992004"><ele>62.14</ele><time>2011-11-02T12:08:21Z</time></trkpt><trkpt lat="51.9981276523" lon="-1.9981878810"><ele>63.10</ele><time>2011-11-02T12:08:28Z</time></trkpt><trkpt lat="51.9981303345" lon="-1.9982380047"><ele>62.62</ele><time>2011-11-02T12:08:36Z</time></trkpt><trkpt lat="51.9981390517" lon="-1.9982791599"><ele>62.62</ele><time>2011-11-02T12:08:42Z</time></trkpt><trkpt lat="51.9981390517" lon="-1.9982791599"><ele>62.62</ele><time>2011-11-02T12:08:45Z</time></trkpt><trkpt lat="51.9981447514" lon="-1.9983526692"><ele>62.62</ele><time>2011-11-02T12:08:51Z</time></trkpt><trkpt lat="51.9981483556" lon="-1.9984140247"><ele>63.10</ele><time>2011-11-02T12:09:00Z</time></trkpt><trkpt lat="51.9981514569" lon="-1.9984250888"><ele>62.14</ele><time>2011-11-02T12:09:01Z</time></trkpt><trkpt lat="51.9981538039" lon="-1.9984638132"><ele>63.10</ele><time>2011-11-02T12:09:03Z</time></trkpt><trkpt lat="51.9981696457" lon="-1.9985914696"><ele>63.10</ele><time>2011-11-02T12:09:09Z</time></trkpt><trkpt lat="51.9981802907" lon="-1.9987404160"><ele>63.58</ele><time>2011-11-02T12:09:15Z</time></trkpt><trkpt lat="51.9981806260" lon="-1.9988092314"><ele>63.58</ele><time>2011-11-02T12:09:20Z</time></trkpt><trkpt lat="51.9981736690" lon="-1.9989074674"><ele>63.10</ele><time>2011-11-02T12:09:25Z</time></trkpt><trkpt lat="51.9981704000" lon="-1.9989644643"><ele>63.10</ele><time>2011-11-02T12:09:29Z</time></trkpt><trkpt lat="51.9981836434" lon="-1.9990822300"><ele>63.58</ele><time>2011-11-02T12:09:36Z</time></trkpt><trkpt lat="51.9982258044" lon="-1.9991162606"><ele>64.07</ele><time>2011-11-02T12:09:41Z</time></trkpt><trkpt lat="51.9982824661" lon="-1.9991151709"><ele>63.58</ele><time>2011-11-02T12:09:47Z</time></trkpt><trkpt lat="51.9983087853" lon="-1.9991564099"><ele>64.07</ele><time>2011-11-02T12:09:53Z</time></trkpt><trkpt lat="51.9983719848" lon="-1.9992490299"><ele>63.58</ele><time>2011-11-02T12:10:00Z</time></trkpt><trkpt lat="51.9983791094" lon="-1.9992525503"><ele>64.07</ele><time>2011-11-02T12:10:01Z</time></trkpt><trkpt lat="51.9983969629" lon="-1.9992581662"><ele>63.58</ele><time>2011-11-02T12:10:08Z</time></trkpt><trkpt lat="51.9984098710" lon="-1.9992755167"><ele>63.58</ele><time>2011-11-02T12:10:11Z</time></trkpt><trkpt lat="51.9984469190" lon="-1.9993480202"><ele>64.07</ele><time>2011-11-02T12:10:17Z</time></trkpt><trkpt lat="51.9984614197" lon="-1.9994319230"><ele>63.58</ele><time>2011-11-02T12:10:21Z</time></trkpt><trkpt lat="51.9984904211" lon="-1.9995349366"><ele>64.07</ele><time>2011-11-02T12:10:27Z</time></trkpt><trkpt lat="51.9984932709" lon="-1.9995910954"><ele>63.58</ele><time>2011-11-02T12:10:31Z</time></trkpt><trkpt lat="51.9985172432" lon="-1.9996149838"><ele>63.58</ele><time>2011-11-02T12:10:35Z</time></trkpt><trkpt lat="51.9985210989" lon="-1.9996804465"><ele>64.07</ele><time>2011-11-02T12:10:40Z</time></trkpt><trkpt lat="51.9985205960" lon="-1.9997088611"><ele>63.10</ele><time>2011-11-02T12:10:42Z</time></trkpt><trkpt lat="51.9985240325" lon="-1.9998081867"><ele>63.58</ele><time>2011-11-02T12:10:46Z</time></trkpt><trkpt lat="51.9985075202" lon="-1.9999193307"><ele>63.10</ele><time>2011-11-02T12:10:52Z</time></trkpt><trkpt lat="51.9984951988" lon="-2.0000228472"><ele>62.62</ele><time>2011-11-02T12:10:58Z</time></trkpt><trkpt lat="51.9984988030" lon="-2.0001226757"><ele>62.62</ele><time>2011-11-02T12:11:04Z</time></trkpt><trkpt lat="51.9984980486" lon="-2.0002370887"><ele>63.10</ele><time>2011-11-02T12:11:10Z</time></trkpt><trkpt lat="51.9985033292" lon="-2.0002335683"><ele>63.10</ele><time>2011-11-02T12:11:15Z</time></trkpt><trkpt lat="51.9985100348" lon="-2.0002634916"><ele>62.62</ele><time>2011-11-02T12:11:21Z</time></trkpt><trkpt lat="51.9985045865" lon="-2.0003762282"><ele>62.14</ele><time>2011-11-02T12:11:28Z</time></trkpt><trkpt lat="51.9985098671" lon="-2.0004629809"><ele>63.10</ele><time>2011-11-02T12:11:33Z</time></trkpt><trkpt lat="51.9985170756" lon="-2.0004934911"><ele>62.62</ele><time>2011-11-02T12:11:35Z</time></trkpt><trkpt lat="51.9985181652" lon="-2.0005737897"><ele>62.62</ele><time>2011-11-02T12:11:39Z</time></trkpt><trkpt lat="51.9985149801" lon="-2.0007251669"><ele>63.10</ele><time>2011-11-02T12:11:46Z</time></trkpt><trkpt lat="51.9985265471" lon="-2.0007647295"><ele>62.62</ele><time>2011-11-02T12:11:50Z</time></trkpt><trkpt lat="51.9985642657" lon="-2.0008687489"><ele>62.62</ele><time>2011-11-02T12:11:57Z</time></trkpt><trkpt lat="51.9985873997" lon="-2.0009647217"><ele>62.62</ele><time>2011-11-02T12:12:02Z</time></trkpt><trkpt lat="51.9986101147" lon="-2.0010755304"><ele>62.14</ele><time>2011-11-02T12:12:08Z</time></trkpt><trkpt lat="51.9986142218" lon="-2.0010876842"><ele>62.62</ele><time>2011-11-02T12:12:10Z</time></trkpt><trkpt lat="51.9986209273" lon="-2.0011119917"><ele>62.62</ele><time>2011-11-02T12:12:12Z</time></trkpt><trkpt lat="51.9986397866" lon="-2.0012093056"><ele>62.14</ele><time>2011-11-02T12:12:18Z</time></trkpt><trkpt lat="51.9986754097" lon="-2.0013333578"><ele>61.66</ele><time>2011-11-02T12:12:25Z</time></trkpt><trkpt lat="51.9986969512" lon="-2.0014209487"><ele>62.14</ele><time>2011-11-02T12:12:30Z</time></trkpt><trkpt lat="51.9987030700" lon="-2.0014882553"><ele>61.66</ele><time>2011-11-02T12:12:34Z</time></trkpt><trkpt lat="51.9987247791" lon="-2.0016097091"><ele>61.18</ele><time>2011-11-02T12:12:40Z</time></trkpt><trkpt lat="51.9987597317" lon="-2.0017174166"><ele>61.66</ele><time>2011-11-02T12:12:46Z</time></trkpt><trkpt lat="51.9987654313" lon="-2.0017318334"><ele>61.66</ele><time>2011-11-02T12:12:49Z</time></trkpt><trkpt lat="51.9987834524" lon="-2.0018287282"><ele>62.14</ele><time>2011-11-02T12:12:53Z</time></trkpt><trkpt lat="51.9987856317" lon="-2.0019267127"><ele>61.66</ele><time>2011-11-02T12:12:59Z</time></trkpt><trkpt lat="51.9987914152" lon="-2.0019375253"><ele>61.66</ele><time>2011-11-02T12:13:00Z</time></trkpt><trkpt lat="51.9988046587" lon="-2.0020434726"><ele>61.66</ele><time>2011-11-02T12:13:05Z</time></trkpt><trkpt lat="51.9988268707" lon="-2.0020887349"><ele>61.18</ele><time>2011-11-02T12:13:08Z</time></trkpt><trkpt lat="51.9988456462" lon="-2.0021726377"><ele>61.66</ele><time>2011-11-02T12:13:13Z</time></trkpt><trkpt lat="51.9988448080" lon="-2.0021947660"><ele>62.14</ele><time>2011-11-02T12:13:15Z</time></trkpt><trkpt lat="51.9988451432" lon="-2.0022711251"><ele>62.14</ele><time>2011-11-02T12:13:18Z</time></trkpt><trkpt lat="51.9988581352" lon="-2.0024084207"><ele>61.18</ele><time>2011-11-02T12:13:25Z</time></trkpt><trkpt lat="51.9988603983" lon="-2.0024826843"><ele>60.70</ele><time>2011-11-02T12:13:30Z</time></trkpt><trkpt lat="51.9988282118" lon="-2.0025470573"><ele>61.18</ele><time>2011-11-02T12:13:35Z</time></trkpt><trkpt lat="51.9988184050" lon="-2.0025731251"><ele>61.18</ele><time>2011-11-02T12:13:37Z</time></trkpt><trkpt lat="51.9987894874" lon="-2.0026015397"><ele>60.70</ele><time>2011-11-02T12:13:40Z</time></trkpt><trkpt lat="51.9987394474" lon="-2.0026729535"><ele>61.18</ele><time>2011-11-02T12:13:47Z</time></trkpt><trkpt lat="51.9987116195" lon="-2.0027075708"><ele>61.66</ele><time>2011-11-02T12:13:51Z</time></trkpt><trkpt lat="51.9986468274" lon="-2.0027796552"><ele>61.66</ele><time>2011-11-02T12:13:58Z</time></trkpt><trkpt lat="51.9986450672" lon="-2.0027707703"><ele>62.14</ele><time>2011-11-02T12:14:07Z</time></trkpt><trkpt lat="51.9986450672" lon="-2.0027707703"><ele>61.66</ele><time>2011-11-02T12:14:17Z</time></trkpt><trkpt lat="51.9986433070" lon="-2.0027755480"><ele>61.18</ele><time>2011-11-02T12:14:27Z</time></trkpt><trkpt lat="51.9986490905" lon="-2.0027743746"><ele>62.14</ele><time>2011-11-02T12:14:34Z</time></trkpt><trkpt lat="51.9986495934" lon="-2.0027495641"><ele>62.14</ele><time>2011-11-02T12:14:41Z</time></trkpt></trkseg></trk></gpx>